<?xml version="1.0" encoding="UTF-8" standalone="no" ?>
<gpx xmlns="http://www.topografix.com/GPX/1/1" xmlns:xsi="http://www.w3.org/2001/XMLSchema-instance" xsi:schemaLocation="http://www.topografix.com/GPX/1/1 http://www.topografix.com/GPX/1/1/gpx.xsd" version="1.1" creator="VisuGPX - https://www.visugpx.com">
  <metadata>
    <name>20210620 07:53 Madone d Utelle</name>
  </metadata>
  <trk>
    <name><![CDATA[20210620 07:53 Madone d Utelle]]></name>
    <trkseg>
      <trkpt lat="43.91604" lon="7.24896">
        <ele>768.56754</ele>
        <time>2021-06-20T05:53:11Z</time>
      </trkpt>
      <trkpt lat="43.91609" lon="7.24891">
        <ele>759.2669</ele>
        <time>2021-06-20T05:53:16Z</time>
      </trkpt>
      <trkpt lat="43.91617" lon="7.24886">
        <ele>744.56606</ele>
        <time>2021-06-20T05:53:20Z</time>
      </trkpt>
      <trkpt lat="43.91624" lon="7.24881">
        <ele>744.86531333333</ele>
        <time>2021-06-20T05:53:26Z</time>
      </trkpt>
      <trkpt lat="43.91632" lon="7.24877">
        <ele>744.16454666667</ele>
        <time>2021-06-20T05:53:32Z</time>
      </trkpt>
      <trkpt lat="43.91639" lon="7.24874">
        <ele>742.86380666667</ele>
        <time>2021-06-20T05:53:37Z</time>
      </trkpt>
      <trkpt lat="43.91648" lon="7.24871">
        <ele>741.36301333333</ele>
        <time>2021-06-20T05:53:43Z</time>
      </trkpt>
      <trkpt lat="43.91655" lon="7.24867">
        <ele>741.56226666667</ele>
        <time>2021-06-20T05:53:49Z</time>
      </trkpt>
      <trkpt lat="43.91663" lon="7.24862">
        <ele>742.46146</ele>
        <time>2021-06-20T05:53:58Z</time>
      </trkpt>
      <trkpt lat="43.91671" lon="7.24859">
        <ele>743.06065333333</ele>
        <time>2021-06-20T05:54:06Z</time>
      </trkpt>
      <trkpt lat="43.91678" lon="7.24851">
        <ele>740.25982666667</ele>
        <time>2021-06-20T05:54:14Z</time>
      </trkpt>
      <trkpt lat="43.91684" lon="7.24843">
        <ele>737.85902666667</ele>
        <time>2021-06-20T05:54:24Z</time>
      </trkpt>
      <trkpt lat="43.91683" lon="7.24832">
        <ele>738.85861333333</ele>
        <time>2021-06-20T05:54:30Z</time>
      </trkpt>
      <trkpt lat="43.91686" lon="7.2482">
        <ele>739.65789333333</ele>
        <time>2021-06-20T05:54:36Z</time>
      </trkpt>
      <trkpt lat="43.91692" lon="7.24812">
        <ele>739.45714</ele>
        <time>2021-06-20T05:54:43Z</time>
      </trkpt>
      <trkpt lat="43.91696" lon="7.24801">
        <ele>740.15636666667</ele>
        <time>2021-06-20T05:54:58Z</time>
      </trkpt>
      <trkpt lat="43.91701" lon="7.2479">
        <ele>740.05557333333</ele>
        <time>2021-06-20T05:55:06Z</time>
      </trkpt>
      <trkpt lat="43.91696" lon="7.2478">
        <ele>733.95552</ele>
        <time>2021-06-20T05:55:14Z</time>
      </trkpt>
      <trkpt lat="43.91701" lon="7.24773">
        <ele>734.35483333333</ele>
        <time>2021-06-20T05:55:24Z</time>
      </trkpt>
      <trkpt lat="43.91706" lon="7.24765">
        <ele>733.8541</ele>
        <time>2021-06-20T05:55:29Z</time>
      </trkpt>
      <trkpt lat="43.91708" lon="7.24754">
        <ele>733.55350666667</ele>
        <time>2021-06-20T05:55:34Z</time>
      </trkpt>
      <trkpt lat="43.91713" lon="7.24745">
        <ele>730.55276</ele>
        <time>2021-06-20T05:55:52Z</time>
      </trkpt>
      <trkpt lat="43.91717" lon="7.24735">
        <ele>727.65206</ele>
        <time>2021-06-20T05:55:59Z</time>
      </trkpt>
      <trkpt lat="43.91717" lon="7.24723">
        <ele>725.35156</ele>
        <time>2021-06-20T05:56:06Z</time>
      </trkpt>
      <trkpt lat="43.91713" lon="7.24714">
        <ele>721.8515</ele>
        <time>2021-06-20T05:56:15Z</time>
      </trkpt>
      <trkpt lat="43.91708" lon="7.24701">
        <ele>721.35144</ele>
        <time>2021-06-20T05:56:20Z</time>
      </trkpt>
      <trkpt lat="43.91715" lon="7.24687">
        <ele>721.95031333333</ele>
        <time>2021-06-20T05:56:25Z</time>
      </trkpt>
      <trkpt lat="43.91716" lon="7.24676">
        <ele>727.14978</ele>
        <time>2021-06-20T05:56:34Z</time>
      </trkpt>
      <trkpt lat="43.91718" lon="7.24664">
        <ele>729.2491</ele>
        <time>2021-06-20T05:56:42Z</time>
      </trkpt>
      <trkpt lat="43.91721" lon="7.24652">
        <ele>725.34842666667</ele>
        <time>2021-06-20T05:56:55Z</time>
      </trkpt>
      <trkpt lat="43.9172" lon="7.24642">
        <ele>722.14808</ele>
        <time>2021-06-20T05:57:04Z</time>
      </trkpt>
      <trkpt lat="43.91719" lon="7.24632">
        <ele>706.34775333333</ele>
        <time>2021-06-20T05:57:23Z</time>
      </trkpt>
      <trkpt lat="43.91726" lon="7.24616">
        <ele>701.5466</ele>
        <time>2021-06-20T05:57:28Z</time>
      </trkpt>
      <trkpt lat="43.91731" lon="7.24608">
        <ele>693.94584666667</ele>
        <time>2021-06-20T05:57:33Z</time>
      </trkpt>
      <trkpt lat="43.91735" lon="7.24598">
        <ele>686.14508666667</ele>
        <time>2021-06-20T05:57:40Z</time>
      </trkpt>
      <trkpt lat="43.91736" lon="7.24587">
        <ele>682.94460666667</ele>
        <time>2021-06-20T05:57:45Z</time>
      </trkpt>
      <trkpt lat="43.91739" lon="7.24576">
        <ele>682.4439</ele>
        <time>2021-06-20T05:57:50Z</time>
      </trkpt>
      <trkpt lat="43.9174" lon="7.24565">
        <ele>687.54336</ele>
        <time>2021-06-20T05:57:54Z</time>
      </trkpt>
      <trkpt lat="43.91726" lon="7.24548">
        <ele>699.64384</ele>
        <time>2021-06-20T05:57:58Z</time>
      </trkpt>
      <trkpt lat="43.9172" lon="7.24538">
        <ele>704.44395333333</ele>
        <time>2021-06-20T05:58:02Z</time>
      </trkpt>
      <trkpt lat="43.91723" lon="7.24527">
        <ele>712.44326</ele>
        <time>2021-06-20T05:58:08Z</time>
      </trkpt>
      <trkpt lat="43.9172" lon="7.24515">
        <ele>717.54296666667</ele>
        <time>2021-06-20T05:58:18Z</time>
      </trkpt>
      <trkpt lat="43.91719" lon="7.24503">
        <ele>717.84264</ele>
        <time>2021-06-20T05:58:24Z</time>
      </trkpt>
      <trkpt lat="43.91717" lon="7.24492">
        <ele>716.64236666667</ele>
        <time>2021-06-20T05:58:31Z</time>
      </trkpt>
      <trkpt lat="43.91719" lon="7.2448">
        <ele>710.2417</ele>
        <time>2021-06-20T05:58:41Z</time>
      </trkpt>
      <trkpt lat="43.91711" lon="7.24474">
        <ele>710.04204</ele>
        <time>2021-06-20T05:58:58Z</time>
      </trkpt>
      <trkpt lat="43.91711" lon="7.24461">
        <ele>710.64161333333</ele>
        <time>2021-06-20T05:59:05Z</time>
      </trkpt>
      <trkpt lat="43.91716" lon="7.24452">
        <ele>711.64084666667</ele>
        <time>2021-06-20T05:59:16Z</time>
      </trkpt>
      <trkpt lat="43.91721" lon="7.24443">
        <ele>708.64004</ele>
        <time>2021-06-20T05:59:24Z</time>
      </trkpt>
      <trkpt lat="43.91722" lon="7.24431">
        <ele>705.93949333333</ele>
        <time>2021-06-20T05:59:32Z</time>
      </trkpt>
      <trkpt lat="43.91723" lon="7.2442">
        <ele>702.73899333333</ele>
        <time>2021-06-20T05:59:41Z</time>
      </trkpt>
      <trkpt lat="43.91724" lon="7.24408">
        <ele>701.93842</ele>
        <time>2021-06-20T05:59:48Z</time>
      </trkpt>
      <trkpt lat="43.9172" lon="7.24397">
        <ele>700.53825333333</ele>
        <time>2021-06-20T05:59:58Z</time>
      </trkpt>
      <trkpt lat="43.91719" lon="7.24385">
        <ele>699.83785333333</ele>
        <time>2021-06-20T06:00:07Z</time>
      </trkpt>
      <trkpt lat="43.91714" lon="7.24375">
        <ele>698.03786</ele>
        <time>2021-06-20T06:00:17Z</time>
      </trkpt>
      <trkpt lat="43.91713" lon="7.24363">
        <ele>697.03747333333</ele>
        <time>2021-06-20T06:00:23Z</time>
      </trkpt>
      <trkpt lat="43.91716" lon="7.24351">
        <ele>693.93674</ele>
        <time>2021-06-20T06:00:28Z</time>
      </trkpt>
      <trkpt lat="43.91714" lon="7.24339">
        <ele>686.83644</ele>
        <time>2021-06-20T06:00:33Z</time>
      </trkpt>
      <trkpt lat="43.91706" lon="7.24339">
        <ele>684.33704</ele>
        <time>2021-06-20T06:00:39Z</time>
      </trkpt>
      <trkpt lat="43.91697" lon="7.24337">
        <ele>682.0377</ele>
        <time>2021-06-20T06:00:43Z</time>
      </trkpt>
      <trkpt lat="43.91692" lon="7.24327">
        <ele>682.93768</ele>
        <time>2021-06-20T06:00:50Z</time>
      </trkpt>
      <trkpt lat="43.91687" lon="7.24318">
        <ele>683.43774</ele>
        <time>2021-06-20T06:01:02Z</time>
      </trkpt>
      <trkpt lat="43.91679" lon="7.24319">
        <ele>683.83844666667</ele>
        <time>2021-06-20T06:01:09Z</time>
      </trkpt>
      <trkpt lat="43.91673" lon="7.24327">
        <ele>688.93926666667</ele>
        <time>2021-06-20T06:01:16Z</time>
      </trkpt>
      <trkpt lat="43.91664" lon="7.24329">
        <ele>693.74005333333</ele>
        <time>2021-06-20T06:01:24Z</time>
      </trkpt>
      <trkpt lat="43.91656" lon="7.24324">
        <ele>694.94048</ele>
        <time>2021-06-20T06:01:31Z</time>
      </trkpt>
      <trkpt lat="43.91649" lon="7.24324">
        <ele>698.34109333333</ele>
        <time>2021-06-20T06:01:36Z</time>
      </trkpt>
      <trkpt lat="43.9164" lon="7.24326">
        <ele>701.54183333333</ele>
        <time>2021-06-20T06:01:42Z</time>
      </trkpt>
      <trkpt lat="43.91632" lon="7.24325">
        <ele>703.94242666667</ele>
        <time>2021-06-20T06:01:49Z</time>
      </trkpt>
      <trkpt lat="43.91624" lon="7.24321">
        <ele>706.24292</ele>
        <time>2021-06-20T06:01:55Z</time>
      </trkpt>
      <trkpt lat="43.91616" lon="7.24323">
        <ele>707.54364</ele>
        <time>2021-06-20T06:02:01Z</time>
      </trkpt>
      <trkpt lat="43.91609" lon="7.24329">
        <ele>707.14442</ele>
        <time>2021-06-20T06:02:07Z</time>
      </trkpt>
      <trkpt lat="43.91602" lon="7.24333">
        <ele>711.04514</ele>
        <time>2021-06-20T06:02:16Z</time>
      </trkpt>
      <trkpt lat="43.91596" lon="7.2434">
        <ele>712.5459</ele>
        <time>2021-06-20T06:02:20Z</time>
      </trkpt>
      <trkpt lat="43.91588" lon="7.24343">
        <ele>714.74668666667</ele>
        <time>2021-06-20T06:02:27Z</time>
      </trkpt>
      <trkpt lat="43.91581" lon="7.24344">
        <ele>715.14729333333</ele>
        <time>2021-06-20T06:02:32Z</time>
      </trkpt>
      <trkpt lat="43.91572" lon="7.24346">
        <ele>716.04804666667</ele>
        <time>2021-06-20T06:02:38Z</time>
      </trkpt>
      <trkpt lat="43.91564" lon="7.24344">
        <ele>716.74862666667</ele>
        <time>2021-06-20T06:02:46Z</time>
      </trkpt>
      <trkpt lat="43.91559" lon="7.24337">
        <ele>715.94878</ele>
        <time>2021-06-20T06:02:51Z</time>
      </trkpt>
      <trkpt lat="43.91553" lon="7.24328">
        <ele>716.04890666667</ele>
        <time>2021-06-20T06:02:58Z</time>
      </trkpt>
      <trkpt lat="43.91548" lon="7.24317">
        <ele>713.64882666667</ele>
        <time>2021-06-20T06:03:04Z</time>
      </trkpt>
      <trkpt lat="43.91542" lon="7.24311">
        <ele>709.24912666667</ele>
        <time>2021-06-20T06:03:10Z</time>
      </trkpt>
      <trkpt lat="43.91533" lon="7.24311">
        <ele>707.54980666667</ele>
        <time>2021-06-20T06:03:17Z</time>
      </trkpt>
      <trkpt lat="43.91525" lon="7.24311">
        <ele>708.55047333333</ele>
        <time>2021-06-20T06:03:28Z</time>
      </trkpt>
      <trkpt lat="43.91523" lon="7.24299">
        <ele>715.65009333333</ele>
        <time>2021-06-20T06:04:01Z</time>
      </trkpt>
      <trkpt lat="43.91517" lon="7.24292">
        <ele>716.85031333333</ele>
        <time>2021-06-20T06:04:12Z</time>
      </trkpt>
      <trkpt lat="43.91509" lon="7.24295">
        <ele>717.65106666667</ele>
        <time>2021-06-20T06:04:20Z</time>
      </trkpt>
      <trkpt lat="43.91504" lon="7.24305">
        <ele>718.75184</ele>
        <time>2021-06-20T06:04:28Z</time>
      </trkpt>
      <trkpt lat="43.91499" lon="7.24313">
        <ele>720.45262666667</ele>
        <time>2021-06-20T06:04:36Z</time>
      </trkpt>
      <trkpt lat="43.91491" lon="7.24314">
        <ele>722.05330666667</ele>
        <time>2021-06-20T06:04:45Z</time>
      </trkpt>
      <trkpt lat="43.91486" lon="7.24323">
        <ele>724.35406666667</ele>
        <time>2021-06-20T06:05:00Z</time>
      </trkpt>
      <trkpt lat="43.91486" lon="7.24336">
        <ele>724.15458666667</ele>
        <time>2021-06-20T06:05:13Z</time>
      </trkpt>
      <trkpt lat="43.91482" lon="7.24347">
        <ele>722.85534</ele>
        <time>2021-06-20T06:05:24Z</time>
      </trkpt>
      <trkpt lat="43.91479" lon="7.24358">
        <ele>723.556</ele>
        <time>2021-06-20T06:05:31Z</time>
      </trkpt>
      <trkpt lat="43.91476" lon="7.24369">
        <ele>723.45669333333</ele>
        <time>2021-06-20T06:05:41Z</time>
      </trkpt>
      <trkpt lat="43.91471" lon="7.24378">
        <ele>722.95743333333</ele>
        <time>2021-06-20T06:05:49Z</time>
      </trkpt>
      <trkpt lat="43.91465" lon="7.24387">
        <ele>721.95824</ele>
        <time>2021-06-20T06:06:01Z</time>
      </trkpt>
      <trkpt lat="43.91462" lon="7.24397">
        <ele>723.65892</ele>
        <time>2021-06-20T06:06:09Z</time>
      </trkpt>
      <trkpt lat="43.9146" lon="7.24408">
        <ele>726.5595</ele>
        <time>2021-06-20T06:06:16Z</time>
      </trkpt>
      <trkpt lat="43.91455" lon="7.24416">
        <ele>728.06028666667</ele>
        <time>2021-06-20T06:06:31Z</time>
      </trkpt>
      <trkpt lat="43.91456" lon="7.24428">
        <ele>731.16069333333</ele>
        <time>2021-06-20T06:06:35Z</time>
      </trkpt>
      <trkpt lat="43.91458" lon="7.2444">
        <ele>735.96098666667</ele>
        <time>2021-06-20T06:06:44Z</time>
      </trkpt>
      <trkpt lat="43.91454" lon="7.24451">
        <ele>738.16171333333</ele>
        <time>2021-06-20T06:06:52Z</time>
      </trkpt>
      <trkpt lat="43.9145" lon="7.24461">
        <ele>739.76245333333</ele>
        <time>2021-06-20T06:07:04Z</time>
      </trkpt>
      <trkpt lat="43.91446" lon="7.24471">
        <ele>736.76316</ele>
        <time>2021-06-20T06:07:15Z</time>
      </trkpt>
      <trkpt lat="43.91445" lon="7.24482">
        <ele>735.06368</ele>
        <time>2021-06-20T06:07:23Z</time>
      </trkpt>
      <trkpt lat="43.91443" lon="7.24493">
        <ele>735.46432</ele>
        <time>2021-06-20T06:07:33Z</time>
      </trkpt>
      <trkpt lat="43.91435" lon="7.24499">
        <ele>738.06518666667</ele>
        <time>2021-06-20T06:08:18Z</time>
      </trkpt>
      <trkpt lat="43.91427" lon="7.24498">
        <ele>737.26580666667</ele>
        <time>2021-06-20T06:08:27Z</time>
      </trkpt>
      <trkpt lat="43.91418" lon="7.24498">
        <ele>737.86647333333</ele>
        <time>2021-06-20T06:08:36Z</time>
      </trkpt>
      <trkpt lat="43.91409" lon="7.24499">
        <ele>738.96722</ele>
        <time>2021-06-20T06:08:45Z</time>
      </trkpt>
      <trkpt lat="43.91401" lon="7.24499">
        <ele>740.36792666667</ele>
        <time>2021-06-20T06:08:54Z</time>
      </trkpt>
      <trkpt lat="43.91392" lon="7.24502">
        <ele>744.26872</ele>
        <time>2021-06-20T06:09:06Z</time>
      </trkpt>
      <trkpt lat="43.91385" lon="7.24506">
        <ele>748.16949333333</ele>
        <time>2021-06-20T06:09:16Z</time>
      </trkpt>
      <trkpt lat="43.91376" lon="7.24506">
        <ele>751.17016</ele>
        <time>2021-06-20T06:09:26Z</time>
      </trkpt>
      <trkpt lat="43.91367" lon="7.24508">
        <ele>753.27091333333</ele>
        <time>2021-06-20T06:09:36Z</time>
      </trkpt>
      <trkpt lat="43.91359" lon="7.24507">
        <ele>754.57153333333</ele>
        <time>2021-06-20T06:09:44Z</time>
      </trkpt>
      <trkpt lat="43.9135" lon="7.24507">
        <ele>756.57225333333</ele>
        <time>2021-06-20T06:09:52Z</time>
      </trkpt>
      <trkpt lat="43.91343" lon="7.24512">
        <ele>758.47302666667</ele>
        <time>2021-06-20T06:10:00Z</time>
      </trkpt>
      <trkpt lat="43.91335" lon="7.24516">
        <ele>761.77380666667</ele>
        <time>2021-06-20T06:10:08Z</time>
      </trkpt>
      <trkpt lat="43.91327" lon="7.24512">
        <ele>763.57431333333</ele>
        <time>2021-06-20T06:10:16Z</time>
      </trkpt>
      <trkpt lat="43.91318" lon="7.24513">
        <ele>762.47506666667</ele>
        <time>2021-06-20T06:10:25Z</time>
      </trkpt>
      <trkpt lat="43.9131" lon="7.24515">
        <ele>758.27581333333</ele>
        <time>2021-06-20T06:10:47Z</time>
      </trkpt>
      <trkpt lat="43.91303" lon="7.24518">
        <ele>752.37652</ele>
        <time>2021-06-20T06:10:54Z</time>
      </trkpt>
      <trkpt lat="43.91294" lon="7.24519">
        <ele>750.17725333333</ele>
        <time>2021-06-20T06:11:01Z</time>
      </trkpt>
      <trkpt lat="43.91286" lon="7.24517">
        <ele>748.07782666667</ele>
        <time>2021-06-20T06:11:10Z</time>
      </trkpt>
      <trkpt lat="43.91278" lon="7.24517">
        <ele>746.87848666667</ele>
        <time>2021-06-20T06:11:18Z</time>
      </trkpt>
      <trkpt lat="43.91269" lon="7.24515">
        <ele>745.17911333333</ele>
        <time>2021-06-20T06:11:27Z</time>
      </trkpt>
      <trkpt lat="43.91261" lon="7.24517">
        <ele>745.17984666667</ele>
        <time>2021-06-20T06:11:35Z</time>
      </trkpt>
      <trkpt lat="43.91252" lon="7.24521">
        <ele>747.68064666667</ele>
        <time>2021-06-20T06:11:42Z</time>
      </trkpt>
      <trkpt lat="43.91244" lon="7.24519">
        <ele>748.38121333333</ele>
        <time>2021-06-20T06:11:50Z</time>
      </trkpt>
      <trkpt lat="43.91236" lon="7.24514">
        <ele>747.28168</ele>
        <time>2021-06-20T06:11:58Z</time>
      </trkpt>
      <trkpt lat="43.91228" lon="7.24509">
        <ele>745.38208666667</ele>
        <time>2021-06-20T06:12:06Z</time>
      </trkpt>
      <trkpt lat="43.9122" lon="7.24505">
        <ele>741.18259333333</ele>
        <time>2021-06-20T06:12:14Z</time>
      </trkpt>
      <trkpt lat="43.91213" lon="7.24504">
        <ele>739.18317333333</ele>
        <time>2021-06-20T06:12:20Z</time>
      </trkpt>
      <trkpt lat="43.91204" lon="7.24506">
        <ele>739.38391333333</ele>
        <time>2021-06-20T06:12:27Z</time>
      </trkpt>
      <trkpt lat="43.91196" lon="7.24505">
        <ele>740.68455333333</ele>
        <time>2021-06-20T06:12:34Z</time>
      </trkpt>
      <trkpt lat="43.91187" lon="7.24504">
        <ele>739.08519333333</ele>
        <time>2021-06-20T06:12:42Z</time>
      </trkpt>
      <trkpt lat="43.91179" lon="7.24502">
        <ele>737.8858</ele>
        <time>2021-06-20T06:12:49Z</time>
      </trkpt>
      <trkpt lat="43.91171" lon="7.24499">
        <ele>737.68627333333</ele>
        <time>2021-06-20T06:13:01Z</time>
      </trkpt>
      <trkpt lat="43.91163" lon="7.24499">
        <ele>738.18690666667</ele>
        <time>2021-06-20T06:13:07Z</time>
      </trkpt>
      <trkpt lat="43.91155" lon="7.24497">
        <ele>738.08746</ele>
        <time>2021-06-20T06:13:14Z</time>
      </trkpt>
      <trkpt lat="43.91147" lon="7.24493">
        <ele>736.98796</ele>
        <time>2021-06-20T06:13:21Z</time>
      </trkpt>
      <trkpt lat="43.9114" lon="7.24487">
        <ele>735.88830666667</ele>
        <time>2021-06-20T06:13:28Z</time>
      </trkpt>
      <trkpt lat="43.91131" lon="7.24486">
        <ele>738.98894666667</ele>
        <time>2021-06-20T06:13:53Z</time>
      </trkpt>
      <trkpt lat="43.91123" lon="7.24482">
        <ele>740.48941333333</ele>
        <time>2021-06-20T06:14:01Z</time>
      </trkpt>
      <trkpt lat="43.91116" lon="7.24475">
        <ele>740.28975333333</ele>
        <time>2021-06-20T06:14:08Z</time>
      </trkpt>
      <trkpt lat="43.91117" lon="7.24464">
        <ele>737.68921333333</ele>
        <time>2021-06-20T06:14:28Z</time>
      </trkpt>
      <trkpt lat="43.91109" lon="7.24459">
        <ele>733.38969333333</ele>
        <time>2021-06-20T06:14:37Z</time>
      </trkpt>
      <trkpt lat="43.91101" lon="7.24456">
        <ele>728.89018666667</ele>
        <time>2021-06-20T06:14:44Z</time>
      </trkpt>
      <trkpt lat="43.91094" lon="7.24448">
        <ele>727.89038666667</ele>
        <time>2021-06-20T06:14:53Z</time>
      </trkpt>
      <trkpt lat="43.91087" lon="7.24442">
        <ele>726.59074</ele>
        <time>2021-06-20T06:15:02Z</time>
      </trkpt>
      <trkpt lat="43.91079" lon="7.24438">
        <ele>728.8912</ele>
        <time>2021-06-20T06:15:07Z</time>
      </trkpt>
      <trkpt lat="43.9107" lon="7.24435">
        <ele>735.19175333333</ele>
        <time>2021-06-20T06:15:14Z</time>
      </trkpt>
      <trkpt lat="43.91072" lon="7.24423">
        <ele>739.49115333333</ele>
        <time>2021-06-20T06:15:27Z</time>
      </trkpt>
      <trkpt lat="43.91075" lon="7.24411">
        <ele>737.79044666667</ele>
        <time>2021-06-20T06:15:34Z</time>
      </trkpt>
      <trkpt lat="43.91074" lon="7.24401">
        <ele>738.39012666667</ele>
        <time>2021-06-20T06:15:41Z</time>
      </trkpt>
      <trkpt lat="43.91075" lon="7.24389">
        <ele>739.18958</ele>
        <time>2021-06-20T06:15:51Z</time>
      </trkpt>
      <trkpt lat="43.91071" lon="7.24378">
        <ele>735.88944</ele>
        <time>2021-06-20T06:16:00Z</time>
      </trkpt>
      <trkpt lat="43.91069" lon="7.24368">
        <ele>736.88924</ele>
        <time>2021-06-20T06:16:10Z</time>
      </trkpt>
      <trkpt lat="43.91068" lon="7.24356">
        <ele>737.18882666667</ele>
        <time>2021-06-20T06:16:17Z</time>
      </trkpt>
      <trkpt lat="43.91067" lon="7.24345">
        <ele>736.88839333333</ele>
        <time>2021-06-20T06:16:26Z</time>
      </trkpt>
      <trkpt lat="43.91069" lon="7.24333">
        <ele>736.78784</ele>
        <time>2021-06-20T06:16:33Z</time>
      </trkpt>
      <trkpt lat="43.91067" lon="7.24321">
        <ele>737.98748</ele>
        <time>2021-06-20T06:16:40Z</time>
      </trkpt>
      <trkpt lat="43.91061" lon="7.24312">
        <ele>738.08757333333</ele>
        <time>2021-06-20T06:16:48Z</time>
      </trkpt>
      <trkpt lat="43.91059" lon="7.24301">
        <ele>737.48733333333</ele>
        <time>2021-06-20T06:16:55Z</time>
      </trkpt>
      <trkpt lat="43.91053" lon="7.24293">
        <ele>736.28749333333</ele>
        <time>2021-06-20T06:17:02Z</time>
      </trkpt>
      <trkpt lat="43.91048" lon="7.24284">
        <ele>734.78752666667</ele>
        <time>2021-06-20T06:17:09Z</time>
      </trkpt>
      <trkpt lat="43.91041" lon="7.24276">
        <ele>733.38773333333</ele>
        <time>2021-06-20T06:17:17Z</time>
      </trkpt>
      <trkpt lat="43.91034" lon="7.24271">
        <ele>729.78813333333</ele>
        <time>2021-06-20T06:17:26Z</time>
      </trkpt>
      <trkpt lat="43.91027" lon="7.24264">
        <ele>727.5884</ele>
        <time>2021-06-20T06:17:33Z</time>
      </trkpt>
      <trkpt lat="43.91021" lon="7.24256">
        <ele>725.28854</ele>
        <time>2021-06-20T06:17:39Z</time>
      </trkpt>
      <trkpt lat="43.91015" lon="7.24249">
        <ele>723.68878666667</ele>
        <time>2021-06-20T06:17:46Z</time>
      </trkpt>
      <trkpt lat="43.91007" lon="7.24243">
        <ele>723.48916</ele>
        <time>2021-06-20T06:17:53Z</time>
      </trkpt>
      <trkpt lat="43.91" lon="7.24237">
        <ele>721.88948</ele>
        <time>2021-06-20T06:18:01Z</time>
      </trkpt>
      <trkpt lat="43.90993" lon="7.24231">
        <ele>722.68985333333</ele>
        <time>2021-06-20T06:18:08Z</time>
      </trkpt>
      <trkpt lat="43.90986" lon="7.24224">
        <ele>722.49009333333</ele>
        <time>2021-06-20T06:18:15Z</time>
      </trkpt>
      <trkpt lat="43.90979" lon="7.24217">
        <ele>722.59034666667</ele>
        <time>2021-06-20T06:18:22Z</time>
      </trkpt>
      <trkpt lat="43.90972" lon="7.24213">
        <ele>722.69078</ele>
        <time>2021-06-20T06:18:29Z</time>
      </trkpt>
      <trkpt lat="43.90964" lon="7.24208">
        <ele>720.99123333333</ele>
        <time>2021-06-20T06:18:38Z</time>
      </trkpt>
      <trkpt lat="43.90958" lon="7.242">
        <ele>719.19138</ele>
        <time>2021-06-20T06:18:45Z</time>
      </trkpt>
      <trkpt lat="43.9095" lon="7.24192">
        <ele>717.99168</ele>
        <time>2021-06-20T06:18:52Z</time>
      </trkpt>
      <trkpt lat="43.90943" lon="7.24187">
        <ele>717.692</ele>
        <time>2021-06-20T06:18:59Z</time>
      </trkpt>
      <trkpt lat="43.90935" lon="7.24183">
        <ele>717.29248666667</ele>
        <time>2021-06-20T06:19:08Z</time>
      </trkpt>
      <trkpt lat="43.90929" lon="7.24175">
        <ele>716.69272</ele>
        <time>2021-06-20T06:19:19Z</time>
      </trkpt>
      <trkpt lat="43.90924" lon="7.24165">
        <ele>718.29268666667</ele>
        <time>2021-06-20T06:19:27Z</time>
      </trkpt>
      <trkpt lat="43.90921" lon="7.24154">
        <ele>719.49248666667</ele>
        <time>2021-06-20T06:19:35Z</time>
      </trkpt>
      <trkpt lat="43.90917" lon="7.24143">
        <ele>719.79235333333</ele>
        <time>2021-06-20T06:19:42Z</time>
      </trkpt>
      <trkpt lat="43.90917" lon="7.24131">
        <ele>720.79184666667</ele>
        <time>2021-06-20T06:19:50Z</time>
      </trkpt>
      <trkpt lat="43.90916" lon="7.24119">
        <ele>720.79149333333</ele>
        <time>2021-06-20T06:20:01Z</time>
      </trkpt>
      <trkpt lat="43.90917" lon="7.24108">
        <ele>721.49098</ele>
        <time>2021-06-20T06:20:10Z</time>
      </trkpt>
      <trkpt lat="43.90914" lon="7.24099">
        <ele>721.09084</ele>
        <time>2021-06-20T06:20:14Z</time>
      </trkpt>
      <trkpt lat="43.9091" lon="7.24087">
        <ele>722.29070666667</ele>
        <time>2021-06-20T06:20:19Z</time>
      </trkpt>
      <trkpt lat="43.90904" lon="7.24079">
        <ele>723.49080666667</ele>
        <time>2021-06-20T06:20:26Z</time>
      </trkpt>
      <trkpt lat="43.90899" lon="7.24069">
        <ele>725.19083333333</ele>
        <time>2021-06-20T06:20:34Z</time>
      </trkpt>
      <trkpt lat="43.90895" lon="7.24059">
        <ele>724.19080666667</ele>
        <time>2021-06-20T06:20:44Z</time>
      </trkpt>
      <trkpt lat="43.90887" lon="7.24054">
        <ele>719.19119333333</ele>
        <time>2021-06-20T06:20:55Z</time>
      </trkpt>
      <trkpt lat="43.90882" lon="7.24044">
        <ele>719.59124666667</ele>
        <time>2021-06-20T06:21:03Z</time>
      </trkpt>
      <trkpt lat="43.90875" lon="7.24037">
        <ele>721.09146666667</ele>
        <time>2021-06-20T06:21:10Z</time>
      </trkpt>
      <trkpt lat="43.90869" lon="7.24028">
        <ele>722.69158</ele>
        <time>2021-06-20T06:21:19Z</time>
      </trkpt>
      <trkpt lat="43.90866" lon="7.24018">
        <ele>725.69142666667</ele>
        <time>2021-06-20T06:21:27Z</time>
      </trkpt>
      <trkpt lat="43.90865" lon="7.24007">
        <ele>727.49107333333</ele>
        <time>2021-06-20T06:21:35Z</time>
      </trkpt>
      <trkpt lat="43.90862" lon="7.23996">
        <ele>728.39085333333</ele>
        <time>2021-06-20T06:21:42Z</time>
      </trkpt>
      <trkpt lat="43.9086" lon="7.23984">
        <ele>728.19061333333</ele>
        <time>2021-06-20T06:21:49Z</time>
      </trkpt>
      <trkpt lat="43.90857" lon="7.23974">
        <ele>728.09042666667</ele>
        <time>2021-06-20T06:21:55Z</time>
      </trkpt>
      <trkpt lat="43.90856" lon="7.23964">
        <ele>728.89009333333</ele>
        <time>2021-06-20T06:22:02Z</time>
      </trkpt>
      <trkpt lat="43.90851" lon="7.23954">
        <ele>729.69003333333</ele>
        <time>2021-06-20T06:22:10Z</time>
      </trkpt>
      <trkpt lat="43.90845" lon="7.23947">
        <ele>728.89030666667</ele>
        <time>2021-06-20T06:22:17Z</time>
      </trkpt>
      <trkpt lat="43.90839" lon="7.23938">
        <ele>726.89036666667</ele>
        <time>2021-06-20T06:22:24Z</time>
      </trkpt>
      <trkpt lat="43.90833" lon="7.23931">
        <ele>725.69058666667</ele>
        <time>2021-06-20T06:22:30Z</time>
      </trkpt>
      <trkpt lat="43.90825" lon="7.23926">
        <ele>723.69101333333</ele>
        <time>2021-06-20T06:22:37Z</time>
      </trkpt>
      <trkpt lat="43.90818" lon="7.23919">
        <ele>722.5913</ele>
        <time>2021-06-20T06:22:45Z</time>
      </trkpt>
      <trkpt lat="43.90813" lon="7.2391">
        <ele>721.39138666667</ele>
        <time>2021-06-20T06:22:53Z</time>
      </trkpt>
      <trkpt lat="43.90807" lon="7.23902">
        <ele>719.29154</ele>
        <time>2021-06-20T06:22:59Z</time>
      </trkpt>
      <trkpt lat="43.908" lon="7.23894">
        <ele>717.19172</ele>
        <time>2021-06-20T06:23:06Z</time>
      </trkpt>
      <trkpt lat="43.90795" lon="7.23885">
        <ele>716.39175333333</ele>
        <time>2021-06-20T06:23:13Z</time>
      </trkpt>
      <trkpt lat="43.90789" lon="7.23876">
        <ele>716.59194</ele>
        <time>2021-06-20T06:23:21Z</time>
      </trkpt>
      <trkpt lat="43.90785" lon="7.23866">
        <ele>717.79182</ele>
        <time>2021-06-20T06:23:30Z</time>
      </trkpt>
      <trkpt lat="43.90781" lon="7.23856">
        <ele>718.79172666667</ele>
        <time>2021-06-20T06:23:37Z</time>
      </trkpt>
      <trkpt lat="43.90776" lon="7.23847">
        <ele>718.49181333333</ele>
        <time>2021-06-20T06:23:45Z</time>
      </trkpt>
      <trkpt lat="43.90772" lon="7.23836">
        <ele>717.39166</ele>
        <time>2021-06-20T06:23:54Z</time>
      </trkpt>
      <trkpt lat="43.90773" lon="7.23825">
        <ele>718.99114</ele>
        <time>2021-06-20T06:24:21Z</time>
      </trkpt>
      <trkpt lat="43.90777" lon="7.23815">
        <ele>718.69046</ele>
        <time>2021-06-20T06:24:28Z</time>
      </trkpt>
      <trkpt lat="43.90776" lon="7.23804">
        <ele>717.4901</ele>
        <time>2021-06-20T06:24:34Z</time>
      </trkpt>
      <trkpt lat="43.90777" lon="7.23793">
        <ele>716.3896</ele>
        <time>2021-06-20T06:24:40Z</time>
      </trkpt>
      <trkpt lat="43.90778" lon="7.23782">
        <ele>715.88908</ele>
        <time>2021-06-20T06:24:47Z</time>
      </trkpt>
      <trkpt lat="43.90778" lon="7.2377">
        <ele>716.78858</ele>
        <time>2021-06-20T06:24:56Z</time>
      </trkpt>
      <trkpt lat="43.90779" lon="7.23759">
        <ele>715.48804</ele>
        <time>2021-06-20T06:25:03Z</time>
      </trkpt>
      <trkpt lat="43.90783" lon="7.2375">
        <ele>715.28734666667</ele>
        <time>2021-06-20T06:25:09Z</time>
      </trkpt>
      <trkpt lat="43.90786" lon="7.23739">
        <ele>714.48665333333</ele>
        <time>2021-06-20T06:25:15Z</time>
      </trkpt>
      <trkpt lat="43.90788" lon="7.23727">
        <ele>714.28606666667</ele>
        <time>2021-06-20T06:25:21Z</time>
      </trkpt>
      <trkpt lat="43.90793" lon="7.23719">
        <ele>715.08532</ele>
        <time>2021-06-20T06:25:27Z</time>
      </trkpt>
      <trkpt lat="43.90794" lon="7.23708">
        <ele>716.38478</ele>
        <time>2021-06-20T06:25:34Z</time>
      </trkpt>
      <trkpt lat="43.90795" lon="7.23697">
        <ele>719.08426</ele>
        <time>2021-06-20T06:25:43Z</time>
      </trkpt>
      <trkpt lat="43.90796" lon="7.23685">
        <ele>718.08374666667</ele>
        <time>2021-06-20T06:25:50Z</time>
      </trkpt>
      <trkpt lat="43.90788" lon="7.2368">
        <ele>717.28413333333</ele>
        <time>2021-06-20T06:25:58Z</time>
      </trkpt>
      <trkpt lat="43.90781" lon="7.2368">
        <ele>716.18474</ele>
        <time>2021-06-20T06:26:08Z</time>
      </trkpt>
      <trkpt lat="43.90772" lon="7.2368">
        <ele>715.28543333333</ele>
        <time>2021-06-20T06:26:15Z</time>
      </trkpt>
      <trkpt lat="43.90764" lon="7.23684">
        <ele>714.28622666667</ele>
        <time>2021-06-20T06:26:22Z</time>
      </trkpt>
      <trkpt lat="43.90755" lon="7.23684">
        <ele>713.58692666667</ele>
        <time>2021-06-20T06:26:30Z</time>
      </trkpt>
      <trkpt lat="43.90748" lon="7.23681">
        <ele>712.78742</ele>
        <time>2021-06-20T06:26:37Z</time>
      </trkpt>
      <trkpt lat="43.9074" lon="7.23678">
        <ele>712.38789333333</ele>
        <time>2021-06-20T06:26:44Z</time>
      </trkpt>
      <trkpt lat="43.90731" lon="7.23676">
        <ele>710.48853333333</ele>
        <time>2021-06-20T06:26:52Z</time>
      </trkpt>
      <trkpt lat="43.90724" lon="7.23675">
        <ele>707.58911333333</ele>
        <time>2021-06-20T06:26:58Z</time>
      </trkpt>
      <trkpt lat="43.90716" lon="7.23674">
        <ele>705.28971333333</ele>
        <time>2021-06-20T06:27:06Z</time>
      </trkpt>
      <trkpt lat="43.90707" lon="7.23674">
        <ele>703.79039333333</ele>
        <time>2021-06-20T06:27:14Z</time>
      </trkpt>
      <trkpt lat="43.907" lon="7.23665">
        <ele>703.09057333333</ele>
        <time>2021-06-20T06:27:22Z</time>
      </trkpt>
      <trkpt lat="43.90693" lon="7.23661">
        <ele>702.291</ele>
        <time>2021-06-20T06:27:29Z</time>
      </trkpt>
      <trkpt lat="43.90686" lon="7.23655">
        <ele>701.99132666667</ele>
        <time>2021-06-20T06:27:36Z</time>
      </trkpt>
      <trkpt lat="43.9068" lon="7.23647">
        <ele>704.59147333333</ele>
        <time>2021-06-20T06:27:43Z</time>
      </trkpt>
      <trkpt lat="43.90677" lon="7.23636">
        <ele>705.59132666667</ele>
        <time>2021-06-20T06:27:50Z</time>
      </trkpt>
      <trkpt lat="43.90671" lon="7.23629">
        <ele>704.49147333333</ele>
        <time>2021-06-20T06:27:56Z</time>
      </trkpt>
      <trkpt lat="43.90666" lon="7.23619">
        <ele>703.29146666667</ele>
        <time>2021-06-20T06:28:03Z</time>
      </trkpt>
      <trkpt lat="43.90662" lon="7.23607">
        <ele>703.79130666667</ele>
        <time>2021-06-20T06:28:12Z</time>
      </trkpt>
      <trkpt lat="43.9066" lon="7.23596">
        <ele>702.59109333333</ele>
        <time>2021-06-20T06:28:20Z</time>
      </trkpt>
      <trkpt lat="43.90659" lon="7.23584">
        <ele>701.59066666667</ele>
        <time>2021-06-20T06:28:27Z</time>
      </trkpt>
      <trkpt lat="43.90656" lon="7.23573">
        <ele>700.89044</ele>
        <time>2021-06-20T06:28:33Z</time>
      </trkpt>
      <trkpt lat="43.90654" lon="7.23563">
        <ele>700.29021333333</ele>
        <time>2021-06-20T06:28:39Z</time>
      </trkpt>
      <trkpt lat="43.90652" lon="7.23551">
        <ele>699.88986</ele>
        <time>2021-06-20T06:28:46Z</time>
      </trkpt>
      <trkpt lat="43.90652" lon="7.2354">
        <ele>700.18940666667</ele>
        <time>2021-06-20T06:28:52Z</time>
      </trkpt>
      <trkpt lat="43.90654" lon="7.23529">
        <ele>698.58880666667</ele>
        <time>2021-06-20T06:29:00Z</time>
      </trkpt>
      <trkpt lat="43.9065" lon="7.23519">
        <ele>696.98878666667</ele>
        <time>2021-06-20T06:29:08Z</time>
      </trkpt>
      <trkpt lat="43.90645" lon="7.23509">
        <ele>696.68874666667</ele>
        <time>2021-06-20T06:29:14Z</time>
      </trkpt>
      <trkpt lat="43.90643" lon="7.23499">
        <ele>696.2885</ele>
        <time>2021-06-20T06:29:20Z</time>
      </trkpt>
      <trkpt lat="43.90641" lon="7.23488">
        <ele>696.28820666667</ele>
        <time>2021-06-20T06:29:26Z</time>
      </trkpt>
      <trkpt lat="43.9064" lon="7.23477">
        <ele>696.18786666667</ele>
        <time>2021-06-20T06:29:32Z</time>
      </trkpt>
      <trkpt lat="43.90636" lon="7.23467">
        <ele>695.98778666667</ele>
        <time>2021-06-20T06:29:39Z</time>
      </trkpt>
      <trkpt lat="43.90632" lon="7.23457">
        <ele>695.88774666667</ele>
        <time>2021-06-20T06:29:45Z</time>
      </trkpt>
      <trkpt lat="43.90629" lon="7.23447">
        <ele>695.58757333333</ele>
        <time>2021-06-20T06:29:51Z</time>
      </trkpt>
      <trkpt lat="43.90622" lon="7.2344">
        <ele>695.08785333333</ele>
        <time>2021-06-20T06:29:58Z</time>
      </trkpt>
      <trkpt lat="43.9062" lon="7.23428">
        <ele>697.58755333333</ele>
        <time>2021-06-20T06:30:07Z</time>
      </trkpt>
      <trkpt lat="43.90615" lon="7.23418">
        <ele>697.78754</ele>
        <time>2021-06-20T06:30:13Z</time>
      </trkpt>
      <trkpt lat="43.90606" lon="7.23421">
        <ele>696.98833333333</ele>
        <time>2021-06-20T06:30:23Z</time>
      </trkpt>
      <trkpt lat="43.90605" lon="7.23432">
        <ele>696.18885333333</ele>
        <time>2021-06-20T06:30:29Z</time>
      </trkpt>
      <trkpt lat="43.90606" lon="7.23444">
        <ele>695.48925333333</ele>
        <time>2021-06-20T06:30:35Z</time>
      </trkpt>
      <trkpt lat="43.90606" lon="7.23456">
        <ele>694.58973333333</ele>
        <time>2021-06-20T06:30:43Z</time>
      </trkpt>
      <trkpt lat="43.90605" lon="7.23468">
        <ele>694.7903</ele>
        <time>2021-06-20T06:30:49Z</time>
      </trkpt>
      <trkpt lat="43.90604" lon="7.23479">
        <ele>694.69084666667</ele>
        <time>2021-06-20T06:30:55Z</time>
      </trkpt>
      <trkpt lat="43.90601" lon="7.23489">
        <ele>692.69146</ele>
        <time>2021-06-20T06:31:01Z</time>
      </trkpt>
      <trkpt lat="43.90599" lon="7.235">
        <ele>689.79208666667</ele>
        <time>2021-06-20T06:31:07Z</time>
      </trkpt>
      <trkpt lat="43.90591" lon="7.23505">
        <ele>686.99292666667</ele>
        <time>2021-06-20T06:31:14Z</time>
      </trkpt>
      <trkpt lat="43.90585" lon="7.23513">
        <ele>686.99370666667</ele>
        <time>2021-06-20T06:31:19Z</time>
      </trkpt>
      <trkpt lat="43.90582" lon="7.23523">
        <ele>687.79438</ele>
        <time>2021-06-20T06:31:25Z</time>
      </trkpt>
      <trkpt lat="43.9058" lon="7.23533">
        <ele>688.0949</ele>
        <time>2021-06-20T06:31:30Z</time>
      </trkpt>
      <trkpt lat="43.90579" lon="7.23545">
        <ele>688.49549333333</ele>
        <time>2021-06-20T06:31:37Z</time>
      </trkpt>
      <trkpt lat="43.90577" lon="7.23555">
        <ele>690.09602666667</ele>
        <time>2021-06-20T06:31:47Z</time>
      </trkpt>
      <trkpt lat="43.90579" lon="7.23566">
        <ele>691.19628666667</ele>
        <time>2021-06-20T06:31:52Z</time>
      </trkpt>
      <trkpt lat="43.90578" lon="7.23577">
        <ele>690.49688</ele>
        <time>2021-06-20T06:31:57Z</time>
      </trkpt>
      <trkpt lat="43.90574" lon="7.23589">
        <ele>690.19762</ele>
        <time>2021-06-20T06:32:03Z</time>
      </trkpt>
      <trkpt lat="43.90571" lon="7.236">
        <ele>690.39831333333</ele>
        <time>2021-06-20T06:32:09Z</time>
      </trkpt>
      <trkpt lat="43.90565" lon="7.23608">
        <ele>688.29914</ele>
        <time>2021-06-20T06:32:16Z</time>
      </trkpt>
      <trkpt lat="43.90556" lon="7.23605">
        <ele>685.39969333333</ele>
        <time>2021-06-20T06:32:21Z</time>
      </trkpt>
      <trkpt lat="43.90548" lon="7.23605">
        <ele>684.00038666667</ele>
        <time>2021-06-20T06:32:28Z</time>
      </trkpt>
      <trkpt lat="43.90541" lon="7.23611">
        <ele>683.10118666667</ele>
        <time>2021-06-20T06:32:35Z</time>
      </trkpt>
      <trkpt lat="43.90535" lon="7.23621">
        <ele>683.302</ele>
        <time>2021-06-20T06:32:43Z</time>
      </trkpt>
      <trkpt lat="43.90529" lon="7.23626">
        <ele>684.20277333333</ele>
        <time>2021-06-20T06:32:52Z</time>
      </trkpt>
      <trkpt lat="43.90522" lon="7.23634">
        <ele>686.20359333333</ele>
        <time>2021-06-20T06:32:59Z</time>
      </trkpt>
      <trkpt lat="43.90519" lon="7.23644">
        <ele>688.40428666667</ele>
        <time>2021-06-20T06:33:06Z</time>
      </trkpt>
      <trkpt lat="43.90521" lon="7.23654">
        <ele>690.40448</ele>
        <time>2021-06-20T06:33:14Z</time>
      </trkpt>
      <trkpt lat="43.90525" lon="7.23665">
        <ele>692.50459333333</ele>
        <time>2021-06-20T06:33:21Z</time>
      </trkpt>
      <trkpt lat="43.90523" lon="7.23676">
        <ele>693.50521333333</ele>
        <time>2021-06-20T06:33:35Z</time>
      </trkpt>
      <trkpt lat="43.90517" lon="7.23685">
        <ele>692.90603333333</ele>
        <time>2021-06-20T06:34:16Z</time>
      </trkpt>
      <trkpt lat="43.90515" lon="7.23696">
        <ele>696.30668</ele>
        <time>2021-06-20T06:34:27Z</time>
      </trkpt>
      <trkpt lat="43.90507" lon="7.2369">
        <ele>698.90707333333</ele>
        <time>2021-06-20T06:34:44Z</time>
      </trkpt>
      <trkpt lat="43.90504" lon="7.23679">
        <ele>699.90684</ele>
        <time>2021-06-20T06:34:54Z</time>
      </trkpt>
      <trkpt lat="43.905" lon="7.2369">
        <ele>694.90755333333</ele>
        <time>2021-06-20T06:35:14Z</time>
      </trkpt>
      <trkpt lat="43.90495" lon="7.23698">
        <ele>693.90837333333</ele>
        <time>2021-06-20T06:35:24Z</time>
      </trkpt>
      <trkpt lat="43.90489" lon="7.23707">
        <ele>693.80914666667</ele>
        <time>2021-06-20T06:35:35Z</time>
      </trkpt>
      <trkpt lat="43.90482" lon="7.23714">
        <ele>696.10996666667</ele>
        <time>2021-06-20T06:35:56Z</time>
      </trkpt>
      <trkpt lat="43.90476" lon="7.23721">
        <ele>697.11074</ele>
        <time>2021-06-20T06:36:02Z</time>
      </trkpt>
      <trkpt lat="43.90468" lon="7.23725">
        <ele>698.31157333333</ele>
        <time>2021-06-20T06:36:13Z</time>
      </trkpt>
      <trkpt lat="43.90459" lon="7.23726">
        <ele>699.41230666667</ele>
        <time>2021-06-20T06:36:22Z</time>
      </trkpt>
      <trkpt lat="43.90451" lon="7.23727">
        <ele>700.21298666667</ele>
        <time>2021-06-20T06:36:29Z</time>
      </trkpt>
      <trkpt lat="43.90443" lon="7.23727">
        <ele>700.41364666667</ele>
        <time>2021-06-20T06:36:39Z</time>
      </trkpt>
      <trkpt lat="43.90437" lon="7.23717">
        <ele>702.11372</ele>
        <time>2021-06-20T06:36:49Z</time>
      </trkpt>
      <trkpt lat="43.90432" lon="7.23707">
        <ele>702.81368666667</ele>
        <time>2021-06-20T06:37:00Z</time>
      </trkpt>
      <trkpt lat="43.90426" lon="7.23699">
        <ele>701.81388</ele>
        <time>2021-06-20T06:37:13Z</time>
      </trkpt>
      <trkpt lat="43.90429" lon="7.23688">
        <ele>701.91324</ele>
        <time>2021-06-20T06:37:29Z</time>
      </trkpt>
      <trkpt lat="43.90431" lon="7.23678">
        <ele>700.81259333333</ele>
        <time>2021-06-20T06:37:36Z</time>
      </trkpt>
      <trkpt lat="43.90435" lon="7.23668">
        <ele>695.01190666667</ele>
        <time>2021-06-20T06:37:50Z</time>
      </trkpt>
      <trkpt lat="43.90444" lon="7.2367">
        <ele>703.71126666667</ele>
        <time>2021-06-20T06:38:03Z</time>
      </trkpt>
      <trkpt lat="43.90453" lon="7.23669">
        <ele>710.61054</ele>
        <time>2021-06-20T06:38:21Z</time>
      </trkpt>
      <trkpt lat="43.90458" lon="7.2366">
        <ele>715.90973333333</ele>
        <time>2021-06-20T06:38:35Z</time>
      </trkpt>
      <trkpt lat="43.90459" lon="7.23649">
        <ele>720.10922666667</ele>
        <time>2021-06-20T06:38:47Z</time>
      </trkpt>
      <trkpt lat="43.90457" lon="7.23637">
        <ele>723.40896666667</ele>
        <time>2021-06-20T06:38:59Z</time>
      </trkpt>
      <trkpt lat="43.90454" lon="7.23626">
        <ele>727.30868</ele>
        <time>2021-06-20T06:39:15Z</time>
      </trkpt>
      <trkpt lat="43.90451" lon="7.23614">
        <ele>730.20845333333</ele>
        <time>2021-06-20T06:39:31Z</time>
      </trkpt>
      <trkpt lat="43.90445" lon="7.23607">
        <ele>734.50868</ele>
        <time>2021-06-20T06:39:53Z</time>
      </trkpt>
      <trkpt lat="43.90439" lon="7.23599">
        <ele>735.00884666667</ele>
        <time>2021-06-20T06:40:02Z</time>
      </trkpt>
      <trkpt lat="43.90436" lon="7.23587">
        <ele>734.60864</ele>
        <time>2021-06-20T06:40:16Z</time>
      </trkpt>
      <trkpt lat="43.90435" lon="7.23575">
        <ele>735.70818</ele>
        <time>2021-06-20T06:40:37Z</time>
      </trkpt>
      <trkpt lat="43.90431" lon="7.23565">
        <ele>737.1081</ele>
        <time>2021-06-20T06:40:55Z</time>
      </trkpt>
      <trkpt lat="43.9044" lon="7.23565">
        <ele>739.50743333333</ele>
        <time>2021-06-20T06:41:21Z</time>
      </trkpt>
      <trkpt lat="43.90445" lon="7.23556">
        <ele>739.60660666667</ele>
        <time>2021-06-20T06:41:29Z</time>
      </trkpt>
      <trkpt lat="43.90445" lon="7.23543">
        <ele>739.30611333333</ele>
        <time>2021-06-20T06:41:51Z</time>
      </trkpt>
      <trkpt lat="43.90452" lon="7.23535">
        <ele>740.10525333333</ele>
        <time>2021-06-20T06:42:05Z</time>
      </trkpt>
      <trkpt lat="43.90451" lon="7.23522">
        <ele>742.9048</ele>
        <time>2021-06-20T06:42:20Z</time>
      </trkpt>
      <trkpt lat="43.90454" lon="7.23521">
        <ele>744.80452666667</ele>
        <time>2021-06-20T06:42:39Z</time>
      </trkpt>
      <trkpt lat="43.90464" lon="7.2351">
        <ele>746.70330666667</ele>
        <time>2021-06-20T06:42:43Z</time>
      </trkpt>
      <trkpt lat="43.90469" lon="7.23501">
        <ele>746.50254</ele>
        <time>2021-06-20T06:42:54Z</time>
      </trkpt>
      <trkpt lat="43.90473" lon="7.2349">
        <ele>746.70178666667</ele>
        <time>2021-06-20T06:43:04Z</time>
      </trkpt>
      <trkpt lat="43.90476" lon="7.2348">
        <ele>746.70110666667</ele>
        <time>2021-06-20T06:43:12Z</time>
      </trkpt>
      <trkpt lat="43.90479" lon="7.23469">
        <ele>747.00046</ele>
        <time>2021-06-20T06:43:19Z</time>
      </trkpt>
      <trkpt lat="43.90477" lon="7.23458">
        <ele>747.60011333333</ele>
        <time>2021-06-20T06:43:29Z</time>
      </trkpt>
      <trkpt lat="43.90477" lon="7.23446">
        <ele>747.29969333333</ele>
        <time>2021-06-20T06:43:37Z</time>
      </trkpt>
      <trkpt lat="43.90473" lon="7.23436">
        <ele>747.09960666667</ele>
        <time>2021-06-20T06:43:49Z</time>
      </trkpt>
      <trkpt lat="43.90467" lon="7.23426">
        <ele>747.79966666667</ele>
        <time>2021-06-20T06:44:00Z</time>
      </trkpt>
      <trkpt lat="43.90465" lon="7.23414">
        <ele>751.79934</ele>
        <time>2021-06-20T06:44:22Z</time>
      </trkpt>
      <trkpt lat="43.90464" lon="7.23402">
        <ele>753.69898666667</ele>
        <time>2021-06-20T06:44:35Z</time>
      </trkpt>
      <trkpt lat="43.90464" lon="7.23391">
        <ele>754.39853333333</ele>
        <time>2021-06-20T06:44:43Z</time>
      </trkpt>
      <trkpt lat="43.90467" lon="7.23381">
        <ele>755.49783333333</ele>
        <time>2021-06-20T06:44:53Z</time>
      </trkpt>
      <trkpt lat="43.90474" lon="7.23372">
        <ele>756.79698</ele>
        <time>2021-06-20T06:45:01Z</time>
      </trkpt>
      <trkpt lat="43.90479" lon="7.23362">
        <ele>758.09617333333</ele>
        <time>2021-06-20T06:45:10Z</time>
      </trkpt>
      <trkpt lat="43.90478" lon="7.2335">
        <ele>759.69574</ele>
        <time>2021-06-20T06:45:25Z</time>
      </trkpt>
      <trkpt lat="43.90476" lon="7.23339">
        <ele>760.29546</ele>
        <time>2021-06-20T06:45:34Z</time>
      </trkpt>
      <trkpt lat="43.90479" lon="7.23328">
        <ele>762.79480666667</ele>
        <time>2021-06-20T06:45:54Z</time>
      </trkpt>
      <trkpt lat="43.90481" lon="7.23317">
        <ele>764.39423333333</ele>
        <time>2021-06-20T06:46:04Z</time>
      </trkpt>
      <trkpt lat="43.90478" lon="7.23307">
        <ele>767.19404</ele>
        <time>2021-06-20T06:46:09Z</time>
      </trkpt>
      <trkpt lat="43.90483" lon="7.23305">
        <ele>781.09354666667</ele>
        <time>2021-06-20T06:51:17Z</time>
      </trkpt>
      <trkpt lat="43.9049" lon="7.23298">
        <ele>792.0927</ele>
        <time>2021-06-20T06:51:22Z</time>
      </trkpt>
      <trkpt lat="43.90484" lon="7.23289">
        <ele>790.69283333333</ele>
        <time>2021-06-20T06:51:31Z</time>
      </trkpt>
      <trkpt lat="43.90479" lon="7.2328">
        <ele>790.99292</ele>
        <time>2021-06-20T06:51:41Z</time>
      </trkpt>
      <trkpt lat="43.90477" lon="7.23269">
        <ele>792.69255333333</ele>
        <time>2021-06-20T06:51:52Z</time>
      </trkpt>
      <trkpt lat="43.90474" lon="7.23259">
        <ele>793.69244666667</ele>
        <time>2021-06-20T06:52:19Z</time>
      </trkpt>
      <trkpt lat="43.90469" lon="7.23249">
        <ele>793.19242666667</ele>
        <time>2021-06-20T06:52:32Z</time>
      </trkpt>
      <trkpt lat="43.90463" lon="7.2324">
        <ele>792.89260666667</ele>
        <time>2021-06-20T06:52:41Z</time>
      </trkpt>
      <trkpt lat="43.90457" lon="7.23231">
        <ele>792.5927</ele>
        <time>2021-06-20T06:52:49Z</time>
      </trkpt>
      <trkpt lat="43.90452" lon="7.23221">
        <ele>792.99268666667</ele>
        <time>2021-06-20T06:53:00Z</time>
      </trkpt>
      <trkpt lat="43.90444" lon="7.23218">
        <ele>792.19320666667</ele>
        <time>2021-06-20T06:53:14Z</time>
      </trkpt>
      <trkpt lat="43.9045" lon="7.23225">
        <ele>799.59301333333</ele>
        <time>2021-06-20T06:54:35Z</time>
      </trkpt>
      <trkpt lat="43.90449" lon="7.23237">
        <ele>800.19354666667</ele>
        <time>2021-06-20T06:54:44Z</time>
      </trkpt>
      <trkpt lat="43.90446" lon="7.23246">
        <ele>801.59421333333</ele>
        <time>2021-06-20T06:54:53Z</time>
      </trkpt>
      <trkpt lat="43.90443" lon="7.23258">
        <ele>804.69488666667</ele>
        <time>2021-06-20T06:55:02Z</time>
      </trkpt>
      <trkpt lat="43.90436" lon="7.23251">
        <ele>808.9952</ele>
        <time>2021-06-20T06:55:19Z</time>
      </trkpt>
      <trkpt lat="43.90429" lon="7.23242">
        <ele>807.69535333333</ele>
        <time>2021-06-20T06:55:34Z</time>
      </trkpt>
      <trkpt lat="43.90422" lon="7.23235">
        <ele>806.79564</ele>
        <time>2021-06-20T06:55:46Z</time>
      </trkpt>
      <trkpt lat="43.90418" lon="7.23225">
        <ele>807.99553333333</ele>
        <time>2021-06-20T06:55:56Z</time>
      </trkpt>
      <trkpt lat="43.90413" lon="7.23217">
        <ele>808.39562666667</ele>
        <time>2021-06-20T06:56:04Z</time>
      </trkpt>
      <trkpt lat="43.90406" lon="7.23209">
        <ele>809.79584</ele>
        <time>2021-06-20T06:56:15Z</time>
      </trkpt>
      <trkpt lat="43.90404" lon="7.23197">
        <ele>811.29556666667</ele>
        <time>2021-06-20T06:56:23Z</time>
      </trkpt>
      <trkpt lat="43.90401" lon="7.23186">
        <ele>813.49533333333</ele>
        <time>2021-06-20T06:56:32Z</time>
      </trkpt>
      <trkpt lat="43.90398" lon="7.23175">
        <ele>817.39516666667</ele>
        <time>2021-06-20T06:56:41Z</time>
      </trkpt>
      <trkpt lat="43.90392" lon="7.23166">
        <ele>820.89527333333</ele>
        <time>2021-06-20T06:56:52Z</time>
      </trkpt>
      <trkpt lat="43.90389" lon="7.23155">
        <ele>825.29506666667</ele>
        <time>2021-06-20T06:57:04Z</time>
      </trkpt>
      <trkpt lat="43.90383" lon="7.23147">
        <ele>827.29522</ele>
        <time>2021-06-20T06:57:12Z</time>
      </trkpt>
      <trkpt lat="43.9038" lon="7.23136">
        <ele>829.795</ele>
        <time>2021-06-20T06:57:21Z</time>
      </trkpt>
      <trkpt lat="43.90376" lon="7.23126">
        <ele>831.69499333333</ele>
        <time>2021-06-20T06:57:29Z</time>
      </trkpt>
      <trkpt lat="43.90373" lon="7.23115">
        <ele>834.29478666667</ele>
        <time>2021-06-20T06:57:40Z</time>
      </trkpt>
      <trkpt lat="43.90371" lon="7.23104">
        <ele>836.49446</ele>
        <time>2021-06-20T06:57:49Z</time>
      </trkpt>
      <trkpt lat="43.90369" lon="7.23093">
        <ele>838.39416</ele>
        <time>2021-06-20T06:57:57Z</time>
      </trkpt>
      <trkpt lat="43.90365" lon="7.23082">
        <ele>839.89405333333</ele>
        <time>2021-06-20T06:58:07Z</time>
      </trkpt>
      <trkpt lat="43.90362" lon="7.23071">
        <ele>836.49385333333</ele>
        <time>2021-06-20T06:58:20Z</time>
      </trkpt>
      <trkpt lat="43.90358" lon="7.2306">
        <ele>838.09374666667</ele>
        <time>2021-06-20T06:58:32Z</time>
      </trkpt>
      <trkpt lat="43.90356" lon="7.23049">
        <ele>840.89348666667</ele>
        <time>2021-06-20T06:58:42Z</time>
      </trkpt>
      <trkpt lat="43.90353" lon="7.23038">
        <ele>841.19332666667</ele>
        <time>2021-06-20T06:58:54Z</time>
      </trkpt>
      <trkpt lat="43.90348" lon="7.23028">
        <ele>841.39332</ele>
        <time>2021-06-20T06:59:06Z</time>
      </trkpt>
      <trkpt lat="43.90341" lon="7.23021">
        <ele>841.49351333333</ele>
        <time>2021-06-20T06:59:13Z</time>
      </trkpt>
      <trkpt lat="43.90337" lon="7.23012">
        <ele>843.09354</ele>
        <time>2021-06-20T06:59:21Z</time>
      </trkpt>
      <trkpt lat="43.90332" lon="7.23002">
        <ele>844.89355333333</ele>
        <time>2021-06-20T06:59:30Z</time>
      </trkpt>
      <trkpt lat="43.90325" lon="7.22994">
        <ele>846.49374666667</ele>
        <time>2021-06-20T06:59:39Z</time>
      </trkpt>
      <trkpt lat="43.90317" lon="7.22991">
        <ele>850.89430666667</ele>
        <time>2021-06-20T06:59:53Z</time>
      </trkpt>
      <trkpt lat="43.90312" lon="7.22981">
        <ele>854.39428</ele>
        <time>2021-06-20T07:00:03Z</time>
      </trkpt>
      <trkpt lat="43.90307" lon="7.22972">
        <ele>857.29432</ele>
        <time>2021-06-20T07:00:11Z</time>
      </trkpt>
      <trkpt lat="43.90303" lon="7.22962">
        <ele>859.79429333333</ele>
        <time>2021-06-20T07:00:19Z</time>
      </trkpt>
      <trkpt lat="43.90298" lon="7.22953">
        <ele>861.69430666667</ele>
        <time>2021-06-20T07:00:27Z</time>
      </trkpt>
      <trkpt lat="43.90292" lon="7.22944">
        <ele>862.9944</ele>
        <time>2021-06-20T07:00:34Z</time>
      </trkpt>
      <trkpt lat="43.90286" lon="7.22935">
        <ele>864.79455333333</ele>
        <time>2021-06-20T07:00:44Z</time>
      </trkpt>
      <trkpt lat="43.90281" lon="7.22926">
        <ele>866.19460666667</ele>
        <time>2021-06-20T07:00:52Z</time>
      </trkpt>
      <trkpt lat="43.90274" lon="7.22918">
        <ele>868.19475333333</ele>
        <time>2021-06-20T07:01:04Z</time>
      </trkpt>
      <trkpt lat="43.90278" lon="7.22907">
        <ele>869.89408</ele>
        <time>2021-06-20T07:01:13Z</time>
      </trkpt>
      <trkpt lat="43.90286" lon="7.22904">
        <ele>871.29332</ele>
        <time>2021-06-20T07:01:19Z</time>
      </trkpt>
      <trkpt lat="43.90294" lon="7.22904">
        <ele>871.29267333333</ele>
        <time>2021-06-20T07:01:24Z</time>
      </trkpt>
      <trkpt lat="43.90301" lon="7.22906">
        <ele>870.19211333333</ele>
        <time>2021-06-20T07:01:32Z</time>
      </trkpt>
      <trkpt lat="43.90308" lon="7.22897">
        <ele>869.69127333333</ele>
        <time>2021-06-20T07:01:39Z</time>
      </trkpt>
      <trkpt lat="43.90313" lon="7.22887">
        <ele>871.59044666667</ele>
        <time>2021-06-20T07:01:49Z</time>
      </trkpt>
      <trkpt lat="43.90316" lon="7.22876">
        <ele>872.68978666667</ele>
        <time>2021-06-20T07:01:58Z</time>
      </trkpt>
      <trkpt lat="43.90316" lon="7.22865">
        <ele>872.78928666667</ele>
        <time>2021-06-20T07:02:06Z</time>
      </trkpt>
      <trkpt lat="43.90315" lon="7.22853">
        <ele>871.48891333333</ele>
        <time>2021-06-20T07:02:13Z</time>
      </trkpt>
      <trkpt lat="43.90316" lon="7.22841">
        <ele>869.58839333333</ele>
        <time>2021-06-20T07:02:21Z</time>
      </trkpt>
      <trkpt lat="43.90316" lon="7.22829">
        <ele>866.88792666667</ele>
        <time>2021-06-20T07:02:40Z</time>
      </trkpt>
      <trkpt lat="43.90316" lon="7.22818">
        <ele>865.58746666667</ele>
        <time>2021-06-20T07:02:52Z</time>
      </trkpt>
      <trkpt lat="43.90313" lon="7.22807">
        <ele>865.88721333333</ele>
        <time>2021-06-20T07:03:00Z</time>
      </trkpt>
      <trkpt lat="43.90311" lon="7.22796">
        <ele>865.88698666667</ele>
        <time>2021-06-20T07:03:07Z</time>
      </trkpt>
      <trkpt lat="43.90308" lon="7.22784">
        <ele>866.58672</ele>
        <time>2021-06-20T07:03:14Z</time>
      </trkpt>
      <trkpt lat="43.90304" lon="7.22773">
        <ele>866.98658</ele>
        <time>2021-06-20T07:03:21Z</time>
      </trkpt>
      <trkpt lat="43.903" lon="7.22763">
        <ele>867.48652666667</ele>
        <time>2021-06-20T07:03:29Z</time>
      </trkpt>
      <trkpt lat="43.90304" lon="7.22752">
        <ele>868.58578666667</ele>
        <time>2021-06-20T07:03:37Z</time>
      </trkpt>
      <trkpt lat="43.90302" lon="7.2274">
        <ele>869.38541333333</ele>
        <time>2021-06-20T07:03:46Z</time>
      </trkpt>
      <trkpt lat="43.90298" lon="7.22731">
        <ele>870.28544</ele>
        <time>2021-06-20T07:03:53Z</time>
      </trkpt>
      <trkpt lat="43.9029" lon="7.22725">
        <ele>872.28578666667</ele>
        <time>2021-06-20T07:04:01Z</time>
      </trkpt>
      <trkpt lat="43.90287" lon="7.22714">
        <ele>873.88562</ele>
        <time>2021-06-20T07:04:09Z</time>
      </trkpt>
      <trkpt lat="43.90282" lon="7.22705">
        <ele>874.68565333333</ele>
        <time>2021-06-20T07:04:18Z</time>
      </trkpt>
      <trkpt lat="43.90275" lon="7.22698">
        <ele>876.18592666667</ele>
        <time>2021-06-20T07:04:31Z</time>
      </trkpt>
      <trkpt lat="43.90268" lon="7.22691">
        <ele>880.28620666667</ele>
        <time>2021-06-20T07:04:51Z</time>
      </trkpt>
      <trkpt lat="43.90266" lon="7.2268">
        <ele>882.8859</ele>
        <time>2021-06-20T07:04:59Z</time>
      </trkpt>
      <trkpt lat="43.9026" lon="7.22671">
        <ele>885.18606</ele>
        <time>2021-06-20T07:05:06Z</time>
      </trkpt>
      <trkpt lat="43.90257" lon="7.2266">
        <ele>887.08586666667</ele>
        <time>2021-06-20T07:05:13Z</time>
      </trkpt>
      <trkpt lat="43.90256" lon="7.22648">
        <ele>889.28545333333</ele>
        <time>2021-06-20T07:05:26Z</time>
      </trkpt>
      <trkpt lat="43.90256" lon="7.22636">
        <ele>892.58493333333</ele>
        <time>2021-06-20T07:05:42Z</time>
      </trkpt>
      <trkpt lat="43.90253" lon="7.22624">
        <ele>894.78470666667</ele>
        <time>2021-06-20T07:05:54Z</time>
      </trkpt>
      <trkpt lat="43.90257" lon="7.22614">
        <ele>897.08395333333</ele>
        <time>2021-06-20T07:06:11Z</time>
      </trkpt>
      <trkpt lat="43.90263" lon="7.22605">
        <ele>899.78312666667</ele>
        <time>2021-06-20T07:06:20Z</time>
      </trkpt>
      <trkpt lat="43.90256" lon="7.22597">
        <ele>902.98338</ele>
        <time>2021-06-20T07:06:36Z</time>
      </trkpt>
      <trkpt lat="43.9025" lon="7.22591">
        <ele>905.88364666667</ele>
        <time>2021-06-20T07:06:49Z</time>
      </trkpt>
      <trkpt lat="43.90243" lon="7.22585">
        <ele>908.78395333333</ele>
        <time>2021-06-20T07:06:59Z</time>
      </trkpt>
      <trkpt lat="43.90234" lon="7.22583">
        <ele>910.48458666667</ele>
        <time>2021-06-20T07:07:08Z</time>
      </trkpt>
      <trkpt lat="43.90226" lon="7.22577">
        <ele>913.08496666667</ele>
        <time>2021-06-20T07:07:20Z</time>
      </trkpt>
      <trkpt lat="43.9022" lon="7.22569">
        <ele>917.68518</ele>
        <time>2021-06-20T07:07:37Z</time>
      </trkpt>
      <trkpt lat="43.90217" lon="7.22558">
        <ele>918.38496</ele>
        <time>2021-06-20T07:07:45Z</time>
      </trkpt>
      <trkpt lat="43.90215" lon="7.22546">
        <ele>919.68462666667</ele>
        <time>2021-06-20T07:07:54Z</time>
      </trkpt>
      <trkpt lat="43.90213" lon="7.22535">
        <ele>921.08432666667</ele>
        <time>2021-06-20T07:08:02Z</time>
      </trkpt>
      <trkpt lat="43.90209" lon="7.22524">
        <ele>921.68426</ele>
        <time>2021-06-20T07:08:10Z</time>
      </trkpt>
      <trkpt lat="43.90205" lon="7.22513">
        <ele>922.08408666667</ele>
        <time>2021-06-20T07:08:18Z</time>
      </trkpt>
      <trkpt lat="43.90208" lon="7.22502">
        <ele>922.58348666667</ele>
        <time>2021-06-20T07:08:25Z</time>
      </trkpt>
      <trkpt lat="43.90212" lon="7.22492">
        <ele>923.08273333333</ele>
        <time>2021-06-20T07:08:32Z</time>
      </trkpt>
      <trkpt lat="43.90215" lon="7.22481">
        <ele>922.88203333333</ele>
        <time>2021-06-20T07:08:41Z</time>
      </trkpt>
      <trkpt lat="43.90215" lon="7.22469">
        <ele>922.98154</ele>
        <time>2021-06-20T07:08:50Z</time>
      </trkpt>
      <trkpt lat="43.9022" lon="7.2246">
        <ele>923.28078666667</ele>
        <time>2021-06-20T07:08:58Z</time>
      </trkpt>
      <trkpt lat="43.90211" lon="7.2246">
        <ele>919.58150666667</ele>
        <time>2021-06-20T07:10:13Z</time>
      </trkpt>
      <trkpt lat="43.90218" lon="7.22453">
        <ele>921.28066666667</ele>
        <time>2021-06-20T07:10:42Z</time>
      </trkpt>
      <trkpt lat="43.90217" lon="7.22441">
        <ele>921.08026</ele>
        <time>2021-06-20T07:12:26Z</time>
      </trkpt>
      <trkpt lat="43.90222" lon="7.22432">
        <ele>922.57951333333</ele>
        <time>2021-06-20T07:12:34Z</time>
      </trkpt>
      <trkpt lat="43.90228" lon="7.22423">
        <ele>922.57869333333</ele>
        <time>2021-06-20T07:12:42Z</time>
      </trkpt>
      <trkpt lat="43.90234" lon="7.22415">
        <ele>922.17792</ele>
        <time>2021-06-20T07:12:48Z</time>
      </trkpt>
      <trkpt lat="43.9024" lon="7.22408">
        <ele>923.07709333333</ele>
        <time>2021-06-20T07:12:55Z</time>
      </trkpt>
      <trkpt lat="43.90246" lon="7.22399">
        <ele>924.97625333333</ele>
        <time>2021-06-20T07:13:10Z</time>
      </trkpt>
      <trkpt lat="43.90253" lon="7.22391">
        <ele>926.77538666667</ele>
        <time>2021-06-20T07:13:25Z</time>
      </trkpt>
      <trkpt lat="43.90261" lon="7.22388">
        <ele>926.37461333333</ele>
        <time>2021-06-20T07:13:32Z</time>
      </trkpt>
      <trkpt lat="43.90269" lon="7.22383">
        <ele>926.37380666667</ele>
        <time>2021-06-20T07:13:38Z</time>
      </trkpt>
      <trkpt lat="43.90277" lon="7.22379">
        <ele>927.07298</ele>
        <time>2021-06-20T07:13:47Z</time>
      </trkpt>
      <trkpt lat="43.90284" lon="7.22374">
        <ele>928.57224</ele>
        <time>2021-06-20T07:13:55Z</time>
      </trkpt>
      <trkpt lat="43.90292" lon="7.22374">
        <ele>928.97158666667</ele>
        <time>2021-06-20T07:14:02Z</time>
      </trkpt>
      <trkpt lat="43.90299" lon="7.22367">
        <ele>929.17074</ele>
        <time>2021-06-20T07:14:11Z</time>
      </trkpt>
      <trkpt lat="43.90306" lon="7.2236">
        <ele>928.96994</ele>
        <time>2021-06-20T07:14:19Z</time>
      </trkpt>
      <trkpt lat="43.90313" lon="7.22356">
        <ele>928.66920666667</ele>
        <time>2021-06-20T07:14:25Z</time>
      </trkpt>
      <trkpt lat="43.90321" lon="7.22353">
        <ele>928.56844666667</ele>
        <time>2021-06-20T07:14:32Z</time>
      </trkpt>
      <trkpt lat="43.90329" lon="7.22348">
        <ele>928.46761333333</ele>
        <time>2021-06-20T07:14:41Z</time>
      </trkpt>
      <trkpt lat="43.90337" lon="7.22348">
        <ele>928.06694666667</ele>
        <time>2021-06-20T07:14:49Z</time>
      </trkpt>
      <trkpt lat="43.90345" lon="7.22347">
        <ele>928.16624666667</ele>
        <time>2021-06-20T07:14:57Z</time>
      </trkpt>
      <trkpt lat="43.90354" lon="7.22348">
        <ele>929.66560666667</ele>
        <time>2021-06-20T07:15:06Z</time>
      </trkpt>
      <trkpt lat="43.90363" lon="7.22347">
        <ele>930.76485333333</ele>
        <time>2021-06-20T07:15:16Z</time>
      </trkpt>
      <trkpt lat="43.90371" lon="7.22345">
        <ele>931.76411333333</ele>
        <time>2021-06-20T07:15:23Z</time>
      </trkpt>
      <trkpt lat="43.90379" lon="7.22347">
        <ele>932.96354666667</ele>
        <time>2021-06-20T07:15:32Z</time>
      </trkpt>
      <trkpt lat="43.90387" lon="7.2235">
        <ele>935.06306</ele>
        <time>2021-06-20T07:15:41Z</time>
      </trkpt>
      <trkpt lat="43.90395" lon="7.22355">
        <ele>935.96261333333</ele>
        <time>2021-06-20T07:15:53Z</time>
      </trkpt>
      <trkpt lat="43.904" lon="7.22364">
        <ele>935.96254666667</ele>
        <time>2021-06-20T07:16:03Z</time>
      </trkpt>
      <trkpt lat="43.90408" lon="7.22366">
        <ele>934.76196666667</ele>
        <time>2021-06-20T07:16:11Z</time>
      </trkpt>
      <trkpt lat="43.90417" lon="7.22365">
        <ele>934.36128666667</ele>
        <time>2021-06-20T07:16:18Z</time>
      </trkpt>
      <trkpt lat="43.90425" lon="7.22365">
        <ele>934.46062</ele>
        <time>2021-06-20T07:16:26Z</time>
      </trkpt>
      <trkpt lat="43.90434" lon="7.22363">
        <ele>935.55985333333</ele>
        <time>2021-06-20T07:16:36Z</time>
      </trkpt>
      <trkpt lat="43.90441" lon="7.22368">
        <ele>937.65942</ele>
        <time>2021-06-20T07:16:46Z</time>
      </trkpt>
      <trkpt lat="43.90449" lon="7.22369">
        <ele>939.25882</ele>
        <time>2021-06-20T07:16:55Z</time>
      </trkpt>
      <trkpt lat="43.90457" lon="7.22376">
        <ele>940.55848666667</ele>
        <time>2021-06-20T07:17:03Z</time>
      </trkpt>
      <trkpt lat="43.90464" lon="7.22383">
        <ele>941.75821333333</ele>
        <time>2021-06-20T07:17:11Z</time>
      </trkpt>
      <trkpt lat="43.90472" lon="7.22387">
        <ele>944.25772666667</ele>
        <time>2021-06-20T07:18:36Z</time>
      </trkpt>
      <trkpt lat="43.9048" lon="7.22384">
        <ele>945.55697333333</ele>
        <time>2021-06-20T07:18:43Z</time>
      </trkpt>
      <trkpt lat="43.90489" lon="7.22384">
        <ele>947.05628666667</ele>
        <time>2021-06-20T07:18:54Z</time>
      </trkpt>
      <trkpt lat="43.90497" lon="7.22379">
        <ele>949.35542666667</ele>
        <time>2021-06-20T07:19:08Z</time>
      </trkpt>
      <trkpt lat="43.905" lon="7.22389">
        <ele>950.45554666667</ele>
        <time>2021-06-20T07:19:21Z</time>
      </trkpt>
      <trkpt lat="43.90505" lon="7.22399">
        <ele>952.25554666667</ele>
        <time>2021-06-20T07:19:35Z</time>
      </trkpt>
      <trkpt lat="43.90511" lon="7.22409">
        <ele>955.95552</ele>
        <time>2021-06-20T07:19:55Z</time>
      </trkpt>
      <trkpt lat="43.90519" lon="7.22409">
        <ele>961.55486</ele>
        <time>2021-06-20T07:20:21Z</time>
      </trkpt>
      <trkpt lat="43.90527" lon="7.22407">
        <ele>964.85411333333</ele>
        <time>2021-06-20T07:20:36Z</time>
      </trkpt>
      <trkpt lat="43.90535" lon="7.22412">
        <ele>966.8537</ele>
        <time>2021-06-20T07:21:00Z</time>
      </trkpt>
      <trkpt lat="43.90543" lon="7.22415">
        <ele>968.15316</ele>
        <time>2021-06-20T07:21:18Z</time>
      </trkpt>
      <trkpt lat="43.9055" lon="7.2242">
        <ele>972.35278666667</ele>
        <time>2021-06-20T07:21:43Z</time>
      </trkpt>
      <trkpt lat="43.90555" lon="7.2243">
        <ele>974.65278</ele>
        <time>2021-06-20T07:21:55Z</time>
      </trkpt>
      <trkpt lat="43.90562" lon="7.22439">
        <ele>979.25260666667</ele>
        <time>2021-06-20T07:22:15Z</time>
      </trkpt>
      <trkpt lat="43.9057" lon="7.22439">
        <ele>981.95196</ele>
        <time>2021-06-20T07:22:41Z</time>
      </trkpt>
      <trkpt lat="43.90579" lon="7.22442">
        <ele>985.5514</ele>
        <time>2021-06-20T07:23:05Z</time>
      </trkpt>
      <trkpt lat="43.90587" lon="7.22444">
        <ele>991.25081333333</ele>
        <time>2021-06-20T07:23:33Z</time>
      </trkpt>
      <trkpt lat="43.90593" lon="7.22453">
        <ele>994.45066666667</ele>
        <time>2021-06-20T07:23:49Z</time>
      </trkpt>
      <trkpt lat="43.90601" lon="7.22452">
        <ele>999.94998</ele>
        <time>2021-06-20T07:24:20Z</time>
      </trkpt>
      <trkpt lat="43.90609" lon="7.22448">
        <ele>1002.6491533333</ele>
        <time>2021-06-20T07:24:44Z</time>
      </trkpt>
      <trkpt lat="43.90618" lon="7.22446">
        <ele>1006.2483933333</ele>
        <time>2021-06-20T07:24:59Z</time>
      </trkpt>
      <trkpt lat="43.90626" lon="7.22452">
        <ele>1008.8479733333</ele>
        <time>2021-06-20T07:25:20Z</time>
      </trkpt>
      <trkpt lat="43.90633" lon="7.22458">
        <ele>1011.5476866667</ele>
        <time>2021-06-20T07:25:39Z</time>
      </trkpt>
      <trkpt lat="43.90641" lon="7.22454">
        <ele>1016.24686</ele>
        <time>2021-06-20T07:26:10Z</time>
      </trkpt>
      <trkpt lat="43.90649" lon="7.22459">
        <ele>1019.24642</ele>
        <time>2021-06-20T07:26:33Z</time>
      </trkpt>
      <trkpt lat="43.90656" lon="7.22451">
        <ele>1022.4455733333</ele>
        <time>2021-06-20T07:26:56Z</time>
      </trkpt>
      <trkpt lat="43.90664" lon="7.22455">
        <ele>1026.7451066667</ele>
        <time>2021-06-20T07:27:23Z</time>
      </trkpt>
      <trkpt lat="43.90671" lon="7.22463">
        <ele>1029.74486</ele>
        <time>2021-06-20T07:27:43Z</time>
      </trkpt>
      <trkpt lat="43.90677" lon="7.22471">
        <ele>1033.6446533333</ele>
        <time>2021-06-20T07:27:59Z</time>
      </trkpt>
      <trkpt lat="43.90682" lon="7.2248">
        <ele>1035.8446266667</ele>
        <time>2021-06-20T07:28:13Z</time>
      </trkpt>
      <trkpt lat="43.9069" lon="7.22484">
        <ele>1038.9441466667</ele>
        <time>2021-06-20T07:28:35Z</time>
      </trkpt>
      <trkpt lat="43.90698" lon="7.2249">
        <ele>1041.9437933333</ele>
        <time>2021-06-20T07:28:52Z</time>
      </trkpt>
      <trkpt lat="43.90705" lon="7.22495">
        <ele>1045.5433866667</ele>
        <time>2021-06-20T07:29:12Z</time>
      </trkpt>
      <trkpt lat="43.90713" lon="7.225">
        <ele>1047.4429266667</ele>
        <time>2021-06-20T07:29:32Z</time>
      </trkpt>
      <trkpt lat="43.9072" lon="7.22507">
        <ele>1049.1426333333</ele>
        <time>2021-06-20T07:29:47Z</time>
      </trkpt>
      <trkpt lat="43.90728" lon="7.22513">
        <ele>1049.6422466667</ele>
        <time>2021-06-20T07:30:01Z</time>
      </trkpt>
      <trkpt lat="43.90736" lon="7.22518">
        <ele>1051.0418133333</ele>
        <time>2021-06-20T07:30:15Z</time>
      </trkpt>
      <trkpt lat="43.90744" lon="7.22524">
        <ele>1053.3414266667</ele>
        <time>2021-06-20T07:30:27Z</time>
      </trkpt>
      <trkpt lat="43.9075" lon="7.22531">
        <ele>1056.1412266667</ele>
        <time>2021-06-20T07:31:00Z</time>
      </trkpt>
      <trkpt lat="43.90759" lon="7.22532">
        <ele>1058.74056</ele>
        <time>2021-06-20T07:31:07Z</time>
      </trkpt>
      <trkpt lat="43.90763" lon="7.22541">
        <ele>1059.8405866667</ele>
        <time>2021-06-20T07:31:19Z</time>
      </trkpt>
      <trkpt lat="43.90769" lon="7.2255">
        <ele>1060.6404933333</ele>
        <time>2021-06-20T07:31:31Z</time>
      </trkpt>
      <trkpt lat="43.90776" lon="7.22556">
        <ele>1061.3401533333</ele>
        <time>2021-06-20T07:31:41Z</time>
      </trkpt>
      <trkpt lat="43.90784" lon="7.22561">
        <ele>1063.1397133333</ele>
        <time>2021-06-20T07:31:54Z</time>
      </trkpt>
      <trkpt lat="43.9079" lon="7.2257">
        <ele>1064.1396133333</ele>
        <time>2021-06-20T07:32:04Z</time>
      </trkpt>
      <trkpt lat="43.90797" lon="7.22577">
        <ele>1066.2393466667</ele>
        <time>2021-06-20T07:32:15Z</time>
      </trkpt>
      <trkpt lat="43.90803" lon="7.22585">
        <ele>1068.7391333333</ele>
        <time>2021-06-20T07:32:29Z</time>
      </trkpt>
      <trkpt lat="43.90809" lon="7.22595">
        <ele>1069.83906</ele>
        <time>2021-06-20T07:32:40Z</time>
      </trkpt>
      <trkpt lat="43.90815" lon="7.22602">
        <ele>1070.8388533333</ele>
        <time>2021-06-20T07:32:51Z</time>
      </trkpt>
      <trkpt lat="43.90821" lon="7.2261">
        <ele>1072.2387066667</ele>
        <time>2021-06-20T07:33:01Z</time>
      </trkpt>
      <trkpt lat="43.9083" lon="7.22615">
        <ele>1074.6382133333</ele>
        <time>2021-06-20T07:33:17Z</time>
      </trkpt>
      <trkpt lat="43.90837" lon="7.22623">
        <ele>1077.0379866667</ele>
        <time>2021-06-20T07:33:32Z</time>
      </trkpt>
      <trkpt lat="43.90844" lon="7.22629">
        <ele>1080.6375933333</ele>
        <time>2021-06-20T07:33:50Z</time>
      </trkpt>
      <trkpt lat="43.90853" lon="7.22632">
        <ele>1084.0370733333</ele>
        <time>2021-06-20T07:34:13Z</time>
      </trkpt>
      <trkpt lat="43.90861" lon="7.22636">
        <ele>1087.4365533333</ele>
        <time>2021-06-20T07:34:32Z</time>
      </trkpt>
      <trkpt lat="43.90868" lon="7.22643">
        <ele>1090.4362733333</ele>
        <time>2021-06-20T07:34:49Z</time>
      </trkpt>
      <trkpt lat="43.90876" lon="7.22648">
        <ele>1092.5358533333</ele>
        <time>2021-06-20T07:35:04Z</time>
      </trkpt>
      <trkpt lat="43.90884" lon="7.22653">
        <ele>1094.0354066667</ele>
        <time>2021-06-20T07:35:25Z</time>
      </trkpt>
      <trkpt lat="43.90892" lon="7.22655">
        <ele>1095.8348533333</ele>
        <time>2021-06-20T07:35:49Z</time>
      </trkpt>
      <trkpt lat="43.90899" lon="7.22662">
        <ele>1099.4345266667</ele>
        <time>2021-06-20T07:36:04Z</time>
      </trkpt>
      <trkpt lat="43.90908" lon="7.22664">
        <ele>1102.6339133333</ele>
        <time>2021-06-20T07:36:20Z</time>
      </trkpt>
      <trkpt lat="43.90916" lon="7.2267">
        <ele>1105.43354</ele>
        <time>2021-06-20T07:36:37Z</time>
      </trkpt>
      <trkpt lat="43.9092" lon="7.2268">
        <ele>1106.6336</ele>
        <time>2021-06-20T07:36:50Z</time>
      </trkpt>
      <trkpt lat="43.90927" lon="7.22686">
        <ele>1105.43326</ele>
        <time>2021-06-20T07:37:06Z</time>
      </trkpt>
      <trkpt lat="43.90932" lon="7.22696">
        <ele>1106.9333066667</ele>
        <time>2021-06-20T07:37:15Z</time>
      </trkpt>
      <trkpt lat="43.90934" lon="7.22707">
        <ele>1108.0335733333</ele>
        <time>2021-06-20T07:37:28Z</time>
      </trkpt>
      <trkpt lat="43.90939" lon="7.22716">
        <ele>1110.2335066667</ele>
        <time>2021-06-20T07:37:37Z</time>
      </trkpt>
      <trkpt lat="43.90948" lon="7.22719">
        <ele>1112.6328866667</ele>
        <time>2021-06-20T07:37:59Z</time>
      </trkpt>
      <trkpt lat="43.9095" lon="7.2273">
        <ele>1113.4331733333</ele>
        <time>2021-06-20T07:38:11Z</time>
      </trkpt>
      <trkpt lat="43.90955" lon="7.22741">
        <ele>1116.0332533333</ele>
        <time>2021-06-20T07:38:42Z</time>
      </trkpt>
      <trkpt lat="43.90956" lon="7.22753">
        <ele>1117.9336133333</ele>
        <time>2021-06-20T07:38:56Z</time>
      </trkpt>
      <trkpt lat="43.90959" lon="7.22765">
        <ele>1119.03386</ele>
        <time>2021-06-20T07:39:07Z</time>
      </trkpt>
      <trkpt lat="43.90959" lon="7.22777">
        <ele>1119.5343533333</ele>
        <time>2021-06-20T07:39:17Z</time>
      </trkpt>
      <trkpt lat="43.90966" lon="7.22785">
        <ele>1120.23414</ele>
        <time>2021-06-20T07:39:30Z</time>
      </trkpt>
      <trkpt lat="43.90972" lon="7.22792">
        <ele>1120.6339133333</ele>
        <time>2021-06-20T07:39:49Z</time>
      </trkpt>
      <trkpt lat="43.9097" lon="7.22804">
        <ele>1124.4345533333</ele>
        <time>2021-06-20T07:40:09Z</time>
      </trkpt>
      <trkpt lat="43.90973" lon="7.22815">
        <ele>1125.6348</ele>
        <time>2021-06-20T07:40:21Z</time>
      </trkpt>
      <trkpt lat="43.90979" lon="7.22824">
        <ele>1126.43468</ele>
        <time>2021-06-20T07:40:36Z</time>
      </trkpt>
      <trkpt lat="43.90987" lon="7.22822">
        <ele>1127.13392</ele>
        <time>2021-06-20T07:41:13Z</time>
      </trkpt>
      <trkpt lat="43.90993" lon="7.22814">
        <ele>1127.1330866667</ele>
        <time>2021-06-20T07:41:22Z</time>
      </trkpt>
      <trkpt lat="43.90994" lon="7.22802">
        <ele>1129.03252</ele>
        <time>2021-06-20T07:41:39Z</time>
      </trkpt>
      <trkpt lat="43.90992" lon="7.2279">
        <ele>1130.0322333333</ele>
        <time>2021-06-20T07:41:48Z</time>
      </trkpt>
      <trkpt lat="43.9099" lon="7.22779">
        <ele>1131.3319533333</ele>
        <time>2021-06-20T07:41:55Z</time>
      </trkpt>
      <trkpt lat="43.90986" lon="7.2277">
        <ele>1132.6319466667</ele>
        <time>2021-06-20T07:42:03Z</time>
      </trkpt>
      <trkpt lat="43.9098" lon="7.22761">
        <ele>1133.33206</ele>
        <time>2021-06-20T07:42:11Z</time>
      </trkpt>
      <trkpt lat="43.90975" lon="7.2275">
        <ele>1134.1320133333</ele>
        <time>2021-06-20T07:42:19Z</time>
      </trkpt>
      <trkpt lat="43.90973" lon="7.2274">
        <ele>1134.03176</ele>
        <time>2021-06-20T07:42:26Z</time>
      </trkpt>
      <trkpt lat="43.90972" lon="7.22729">
        <ele>1134.5314066667</ele>
        <time>2021-06-20T07:42:34Z</time>
      </trkpt>
      <trkpt lat="43.9097" lon="7.22717">
        <ele>1135.0310666667</ele>
        <time>2021-06-20T07:42:43Z</time>
      </trkpt>
      <trkpt lat="43.90966" lon="7.22707">
        <ele>1135.5310066667</ele>
        <time>2021-06-20T07:42:52Z</time>
      </trkpt>
      <trkpt lat="43.9096" lon="7.22697">
        <ele>1134.4310733333</ele>
        <time>2021-06-20T07:43:02Z</time>
      </trkpt>
      <trkpt lat="43.90958" lon="7.22685">
        <ele>1134.7307733333</ele>
        <time>2021-06-20T07:43:12Z</time>
      </trkpt>
      <trkpt lat="43.90957" lon="7.22673">
        <ele>1134.6303666667</ele>
        <time>2021-06-20T07:43:21Z</time>
      </trkpt>
      <trkpt lat="43.90955" lon="7.22662">
        <ele>1135.3300666667</ele>
        <time>2021-06-20T07:43:29Z</time>
      </trkpt>
      <trkpt lat="43.90953" lon="7.22651">
        <ele>1136.0298333333</ele>
        <time>2021-06-20T07:43:37Z</time>
      </trkpt>
      <trkpt lat="43.9095" lon="7.22639">
        <ele>1136.6295933333</ele>
        <time>2021-06-20T07:43:48Z</time>
      </trkpt>
      <trkpt lat="43.90948" lon="7.22628">
        <ele>1134.9292866667</ele>
        <time>2021-06-20T07:43:56Z</time>
      </trkpt>
      <trkpt lat="43.90943" lon="7.22618">
        <ele>1134.22928</ele>
        <time>2021-06-20T07:44:04Z</time>
      </trkpt>
      <trkpt lat="43.90939" lon="7.22607">
        <ele>1134.62918</ele>
        <time>2021-06-20T07:44:12Z</time>
      </trkpt>
      <trkpt lat="43.90936" lon="7.22596">
        <ele>1135.5289933333</ele>
        <time>2021-06-20T07:44:20Z</time>
      </trkpt>
      <trkpt lat="43.90932" lon="7.22586">
        <ele>1136.2288933333</ele>
        <time>2021-06-20T07:44:27Z</time>
      </trkpt>
      <trkpt lat="43.90928" lon="7.22576">
        <ele>1136.0288266667</ele>
        <time>2021-06-20T07:44:34Z</time>
      </trkpt>
      <trkpt lat="43.90924" lon="7.22565">
        <ele>1136.4286933333</ele>
        <time>2021-06-20T07:44:43Z</time>
      </trkpt>
      <trkpt lat="43.9092" lon="7.22554">
        <ele>1136.3285533333</ele>
        <time>2021-06-20T07:44:51Z</time>
      </trkpt>
      <trkpt lat="43.90917" lon="7.22544">
        <ele>1137.12842</ele>
        <time>2021-06-20T07:44:58Z</time>
      </trkpt>
      <trkpt lat="43.90912" lon="7.22534">
        <ele>1137.3284</ele>
        <time>2021-06-20T07:45:07Z</time>
      </trkpt>
      <trkpt lat="43.90907" lon="7.22525">
        <ele>1138.3284</ele>
        <time>2021-06-20T07:45:14Z</time>
      </trkpt>
      <trkpt lat="43.90902" lon="7.22516">
        <ele>1139.0284733333</ele>
        <time>2021-06-20T07:45:21Z</time>
      </trkpt>
      <trkpt lat="43.90901" lon="7.22504">
        <ele>1139.0280333333</ele>
        <time>2021-06-20T07:45:30Z</time>
      </trkpt>
      <trkpt lat="43.90902" lon="7.22491">
        <ele>1137.8275133333</ele>
        <time>2021-06-20T07:45:37Z</time>
      </trkpt>
      <trkpt lat="43.90897" lon="7.22482">
        <ele>1137.72754</ele>
        <time>2021-06-20T07:45:44Z</time>
      </trkpt>
      <trkpt lat="43.90896" lon="7.22471">
        <ele>1139.4271866667</ele>
        <time>2021-06-20T07:45:51Z</time>
      </trkpt>
      <trkpt lat="43.90893" lon="7.2246">
        <ele>1140.42696</ele>
        <time>2021-06-20T07:45:59Z</time>
      </trkpt>
      <trkpt lat="43.90888" lon="7.22452">
        <ele>1140.6270533333</ele>
        <time>2021-06-20T07:46:06Z</time>
      </trkpt>
      <trkpt lat="43.9088" lon="7.22446">
        <ele>1142.02746</ele>
        <time>2021-06-20T07:46:15Z</time>
      </trkpt>
      <trkpt lat="43.90876" lon="7.22436">
        <ele>1145.9273533333</ele>
        <time>2021-06-20T07:46:31Z</time>
      </trkpt>
      <trkpt lat="43.90871" lon="7.22427">
        <ele>1148.3273933333</ele>
        <time>2021-06-20T07:55:10Z</time>
      </trkpt>
      <trkpt lat="43.90877" lon="7.22435">
        <ele>1148.7272266667</ele>
        <time>2021-06-20T08:06:24Z</time>
      </trkpt>
      <trkpt lat="43.90881" lon="7.22445">
        <ele>1147.92734</ele>
        <time>2021-06-20T08:06:32Z</time>
      </trkpt>
      <trkpt lat="43.90887" lon="7.22454">
        <ele>1147.3272333333</ele>
        <time>2021-06-20T08:06:40Z</time>
      </trkpt>
      <trkpt lat="43.90893" lon="7.22462">
        <ele>1146.1270333333</ele>
        <time>2021-06-20T08:06:48Z</time>
      </trkpt>
      <trkpt lat="43.90893" lon="7.22474">
        <ele>1145.3274733333</ele>
        <time>2021-06-20T08:06:56Z</time>
      </trkpt>
      <trkpt lat="43.90894" lon="7.22486">
        <ele>1143.82794</ele>
        <time>2021-06-20T08:07:05Z</time>
      </trkpt>
      <trkpt lat="43.90895" lon="7.22497">
        <ele>1142.7283</ele>
        <time>2021-06-20T08:07:14Z</time>
      </trkpt>
      <trkpt lat="43.90899" lon="7.22506">
        <ele>1142.2283533333</ele>
        <time>2021-06-20T08:07:21Z</time>
      </trkpt>
      <trkpt lat="43.90903" lon="7.22516">
        <ele>1141.4283866667</ele>
        <time>2021-06-20T08:07:29Z</time>
      </trkpt>
      <trkpt lat="43.90906" lon="7.22527">
        <ele>1141.9286133333</ele>
        <time>2021-06-20T08:07:37Z</time>
      </trkpt>
      <trkpt lat="43.90909" lon="7.22537">
        <ele>1142.3287666667</ele>
        <time>2021-06-20T08:07:43Z</time>
      </trkpt>
      <trkpt lat="43.90913" lon="7.22546">
        <ele>1142.12876</ele>
        <time>2021-06-20T08:07:49Z</time>
      </trkpt>
      <trkpt lat="43.90919" lon="7.22555">
        <ele>1141.2286866667</ele>
        <time>2021-06-20T08:07:56Z</time>
      </trkpt>
      <trkpt lat="43.90922" lon="7.22565">
        <ele>1140.7288333333</ele>
        <time>2021-06-20T08:08:04Z</time>
      </trkpt>
      <trkpt lat="43.90926" lon="7.22576">
        <ele>1140.9289666667</ele>
        <time>2021-06-20T08:08:11Z</time>
      </trkpt>
      <trkpt lat="43.90928" lon="7.22587">
        <ele>1141.5292266667</ele>
        <time>2021-06-20T08:08:19Z</time>
      </trkpt>
      <trkpt lat="43.90932" lon="7.22597">
        <ele>1141.72928</ele>
        <time>2021-06-20T08:08:26Z</time>
      </trkpt>
      <trkpt lat="43.90936" lon="7.22607">
        <ele>1141.2293666667</ele>
        <time>2021-06-20T08:08:33Z</time>
      </trkpt>
      <trkpt lat="43.90939" lon="7.22617">
        <ele>1140.6295333333</ele>
        <time>2021-06-20T08:08:40Z</time>
      </trkpt>
      <trkpt lat="43.90943" lon="7.22627">
        <ele>1140.3296666667</ele>
        <time>2021-06-20T08:08:47Z</time>
      </trkpt>
      <trkpt lat="43.90947" lon="7.22638">
        <ele>1141.0297733333</ele>
        <time>2021-06-20T08:08:54Z</time>
      </trkpt>
      <trkpt lat="43.9095" lon="7.22649">
        <ele>1141.3299666667</ele>
        <time>2021-06-20T08:09:01Z</time>
      </trkpt>
      <trkpt lat="43.90953" lon="7.22659">
        <ele>1140.6301066667</ele>
        <time>2021-06-20T08:09:08Z</time>
      </trkpt>
      <trkpt lat="43.90956" lon="7.22669">
        <ele>1140.13032</ele>
        <time>2021-06-20T08:09:15Z</time>
      </trkpt>
      <trkpt lat="43.9096" lon="7.2268">
        <ele>1139.6304066667</ele>
        <time>2021-06-20T08:09:22Z</time>
      </trkpt>
      <trkpt lat="43.90962" lon="7.22691">
        <ele>1138.1306933333</ele>
        <time>2021-06-20T08:09:29Z</time>
      </trkpt>
      <trkpt lat="43.90966" lon="7.22703">
        <ele>1137.33086</ele>
        <time>2021-06-20T08:09:36Z</time>
      </trkpt>
      <trkpt lat="43.90968" lon="7.22714">
        <ele>1137.83116</ele>
        <time>2021-06-20T08:09:43Z</time>
      </trkpt>
      <trkpt lat="43.9097" lon="7.22725">
        <ele>1137.2313733333</ele>
        <time>2021-06-20T08:09:50Z</time>
      </trkpt>
      <trkpt lat="43.90972" lon="7.22736">
        <ele>1137.23168</ele>
        <time>2021-06-20T08:09:56Z</time>
      </trkpt>
      <trkpt lat="43.90975" lon="7.22746">
        <ele>1137.0318666667</ele>
        <time>2021-06-20T08:10:02Z</time>
      </trkpt>
      <trkpt lat="43.90977" lon="7.22758">
        <ele>1136.8321666667</ele>
        <time>2021-06-20T08:10:10Z</time>
      </trkpt>
      <trkpt lat="43.90981" lon="7.22767">
        <ele>1136.7321733333</ele>
        <time>2021-06-20T08:10:16Z</time>
      </trkpt>
      <trkpt lat="43.90986" lon="7.22776">
        <ele>1136.43216</ele>
        <time>2021-06-20T08:10:23Z</time>
      </trkpt>
      <trkpt lat="43.90989" lon="7.22788">
        <ele>1136.2323933333</ele>
        <time>2021-06-20T08:10:30Z</time>
      </trkpt>
      <trkpt lat="43.90992" lon="7.22799">
        <ele>1136.3326</ele>
        <time>2021-06-20T08:10:38Z</time>
      </trkpt>
      <trkpt lat="43.90996" lon="7.22809">
        <ele>1135.6327</ele>
        <time>2021-06-20T08:10:45Z</time>
      </trkpt>
      <trkpt lat="43.90999" lon="7.22819">
        <ele>1134.9328333333</ele>
        <time>2021-06-20T08:10:52Z</time>
      </trkpt>
      <trkpt lat="43.91003" lon="7.22829">
        <ele>1135.1329333333</ele>
        <time>2021-06-20T08:11:43Z</time>
      </trkpt>
      <trkpt lat="43.91005" lon="7.22841">
        <ele>1135.9332333333</ele>
        <time>2021-06-20T08:12:41Z</time>
      </trkpt>
      <trkpt lat="43.91008" lon="7.2285">
        <ele>1135.3334</ele>
        <time>2021-06-20T08:12:46Z</time>
      </trkpt>
      <trkpt lat="43.91011" lon="7.22862">
        <ele>1132.3336066667</ele>
        <time>2021-06-20T08:12:52Z</time>
      </trkpt>
      <trkpt lat="43.91012" lon="7.22873">
        <ele>1126.5339266667</ele>
        <time>2021-06-20T08:13:00Z</time>
      </trkpt>
      <trkpt lat="43.91018" lon="7.22882">
        <ele>1125.1338466667</ele>
        <time>2021-06-20T08:13:07Z</time>
      </trkpt>
      <trkpt lat="43.9102" lon="7.22892">
        <ele>1125.13408</ele>
        <time>2021-06-20T08:13:14Z</time>
      </trkpt>
      <trkpt lat="43.91025" lon="7.22902">
        <ele>1126.6340666667</ele>
        <time>2021-06-20T08:13:21Z</time>
      </trkpt>
      <trkpt lat="43.91031" lon="7.22911">
        <ele>1128.7339666667</ele>
        <time>2021-06-20T08:13:28Z</time>
      </trkpt>
      <trkpt lat="43.91037" lon="7.2292">
        <ele>1131.03382</ele>
        <time>2021-06-20T08:13:35Z</time>
      </trkpt>
      <trkpt lat="43.91044" lon="7.22928">
        <ele>1131.83364</ele>
        <time>2021-06-20T08:13:43Z</time>
      </trkpt>
      <trkpt lat="43.9105" lon="7.22936">
        <ele>1131.9334066667</ele>
        <time>2021-06-20T08:13:50Z</time>
      </trkpt>
      <trkpt lat="43.91053" lon="7.22948">
        <ele>1130.33368</ele>
        <time>2021-06-20T08:13:59Z</time>
      </trkpt>
      <trkpt lat="43.91057" lon="7.22957">
        <ele>1129.3337066667</ele>
        <time>2021-06-20T08:14:06Z</time>
      </trkpt>
      <trkpt lat="43.91063" lon="7.22966">
        <ele>1129.63358</ele>
        <time>2021-06-20T08:14:13Z</time>
      </trkpt>
      <trkpt lat="43.91068" lon="7.22974">
        <ele>1130.5335466667</ele>
        <time>2021-06-20T08:14:19Z</time>
      </trkpt>
      <trkpt lat="43.91072" lon="7.22985">
        <ele>1130.6336133333</ele>
        <time>2021-06-20T08:14:26Z</time>
      </trkpt>
      <trkpt lat="43.91076" lon="7.22994">
        <ele>1130.2337133333</ele>
        <time>2021-06-20T08:14:33Z</time>
      </trkpt>
      <trkpt lat="43.91081" lon="7.23003">
        <ele>1130.3336266667</ele>
        <time>2021-06-20T08:14:40Z</time>
      </trkpt>
      <trkpt lat="43.91086" lon="7.23013">
        <ele>1131.5336933333</ele>
        <time>2021-06-20T08:14:48Z</time>
      </trkpt>
      <trkpt lat="43.91091" lon="7.23023">
        <ele>1132.13364</ele>
        <time>2021-06-20T08:14:55Z</time>
      </trkpt>
      <trkpt lat="43.91096" lon="7.23031">
        <ele>1132.2335933333</ele>
        <time>2021-06-20T08:15:02Z</time>
      </trkpt>
      <trkpt lat="43.91101" lon="7.23041">
        <ele>1131.9335866667</ele>
        <time>2021-06-20T08:15:09Z</time>
      </trkpt>
      <trkpt lat="43.91106" lon="7.23048">
        <ele>1131.8334266667</ele>
        <time>2021-06-20T08:15:16Z</time>
      </trkpt>
      <trkpt lat="43.91106" lon="7.2306">
        <ele>1130.6339466667</ele>
        <time>2021-06-20T08:15:24Z</time>
      </trkpt>
      <trkpt lat="43.91109" lon="7.23071">
        <ele>1127.1341066667</ele>
        <time>2021-06-20T08:15:33Z</time>
      </trkpt>
      <trkpt lat="43.91114" lon="7.23081">
        <ele>1125.6340733333</ele>
        <time>2021-06-20T08:15:40Z</time>
      </trkpt>
      <trkpt lat="43.91119" lon="7.23091">
        <ele>1126.3341</ele>
        <time>2021-06-20T08:15:47Z</time>
      </trkpt>
      <trkpt lat="43.91123" lon="7.23101">
        <ele>1127.2341933333</ele>
        <time>2021-06-20T08:15:54Z</time>
      </trkpt>
      <trkpt lat="43.91127" lon="7.23112">
        <ele>1128.3343266667</ele>
        <time>2021-06-20T08:16:09Z</time>
      </trkpt>
      <trkpt lat="43.91126" lon="7.23122">
        <ele>1129.8348</ele>
        <time>2021-06-20T08:16:16Z</time>
      </trkpt>
      <trkpt lat="43.91127" lon="7.23133">
        <ele>1130.83516</ele>
        <time>2021-06-20T08:16:23Z</time>
      </trkpt>
      <trkpt lat="43.9113" lon="7.23144">
        <ele>1132.33536</ele>
        <time>2021-06-20T08:16:31Z</time>
      </trkpt>
      <trkpt lat="43.91136" lon="7.23152">
        <ele>1133.03522</ele>
        <time>2021-06-20T08:16:39Z</time>
      </trkpt>
      <trkpt lat="43.91136" lon="7.23164">
        <ele>1127.8357066667</ele>
        <time>2021-06-20T08:17:03Z</time>
      </trkpt>
      <trkpt lat="43.91141" lon="7.23174">
        <ele>1129.0356333333</ele>
        <time>2021-06-20T08:17:16Z</time>
      </trkpt>
      <trkpt lat="43.91143" lon="7.23186">
        <ele>1129.73602</ele>
        <time>2021-06-20T08:17:27Z</time>
      </trkpt>
      <trkpt lat="43.9115" lon="7.2318">
        <ele>1133.1351666667</ele>
        <time>2021-06-20T08:18:26Z</time>
      </trkpt>
      <trkpt lat="43.91145" lon="7.23182">
        <ele>1136.0357333333</ele>
        <time>2021-06-20T08:19:51Z</time>
      </trkpt>
      <trkpt lat="43.91139" lon="7.23174">
        <ele>1133.2358066667</ele>
        <time>2021-06-20T08:23:00Z</time>
      </trkpt>
      <trkpt lat="43.91136" lon="7.23163">
        <ele>1135.2356733333</ele>
        <time>2021-06-20T08:23:09Z</time>
      </trkpt>
      <trkpt lat="43.91137" lon="7.23152">
        <ele>1137.0351333333</ele>
        <time>2021-06-20T08:23:18Z</time>
      </trkpt>
      <trkpt lat="43.91145" lon="7.23148">
        <ele>1137.9343266667</ele>
        <time>2021-06-20T08:23:23Z</time>
      </trkpt>
      <trkpt lat="43.91153" lon="7.23145">
        <ele>1139.3335133333</ele>
        <time>2021-06-20T08:23:30Z</time>
      </trkpt>
      <trkpt lat="43.91161" lon="7.2314">
        <ele>1136.6327333333</ele>
        <time>2021-06-20T08:23:44Z</time>
      </trkpt>
      <trkpt lat="43.91163" lon="7.23128">
        <ele>1135.9321333333</ele>
        <time>2021-06-20T08:23:55Z</time>
      </trkpt>
      <trkpt lat="43.91162" lon="7.23117">
        <ele>1135.5317266667</ele>
        <time>2021-06-20T08:24:03Z</time>
      </trkpt>
      <trkpt lat="43.91159" lon="7.23107">
        <ele>1135.1315333333</ele>
        <time>2021-06-20T08:24:10Z</time>
      </trkpt>
      <trkpt lat="43.91153" lon="7.23098">
        <ele>1134.0316733333</ele>
        <time>2021-06-20T08:24:25Z</time>
      </trkpt>
      <trkpt lat="43.91145" lon="7.23097">
        <ele>1132.7323266667</ele>
        <time>2021-06-20T08:24:37Z</time>
      </trkpt>
      <trkpt lat="43.91142" lon="7.23085">
        <ele>1131.9320266667</ele>
        <time>2021-06-20T08:24:47Z</time>
      </trkpt>
      <trkpt lat="43.91144" lon="7.23073">
        <ele>1130.5314266667</ele>
        <time>2021-06-20T08:24:56Z</time>
      </trkpt>
      <trkpt lat="43.91144" lon="7.23061">
        <ele>1129.0309066667</ele>
        <time>2021-06-20T08:25:04Z</time>
      </trkpt>
      <trkpt lat="43.91151" lon="7.23054">
        <ele>1126.9301</ele>
        <time>2021-06-20T08:25:14Z</time>
      </trkpt>
      <trkpt lat="43.91158" lon="7.23047">
        <ele>1125.42926</ele>
        <time>2021-06-20T08:25:22Z</time>
      </trkpt>
      <trkpt lat="43.91166" lon="7.23045">
        <ele>1123.2285466667</ele>
        <time>2021-06-20T08:25:30Z</time>
      </trkpt>
      <trkpt lat="43.91174" lon="7.23043">
        <ele>1120.0278133333</ele>
        <time>2021-06-20T08:25:39Z</time>
      </trkpt>
      <trkpt lat="43.91182" lon="7.23041">
        <ele>1116.1270533333</ele>
        <time>2021-06-20T08:25:51Z</time>
      </trkpt>
      <trkpt lat="43.9119" lon="7.23047">
        <ele>1110.72664</ele>
        <time>2021-06-20T08:26:08Z</time>
      </trkpt>
      <trkpt lat="43.91197" lon="7.23055">
        <ele>1110.92648</ele>
        <time>2021-06-20T08:26:48Z</time>
      </trkpt>
      <trkpt lat="43.91199" lon="7.23066">
        <ele>1110.6267266667</ele>
        <time>2021-06-20T08:26:56Z</time>
      </trkpt>
      <trkpt lat="43.91202" lon="7.23077">
        <ele>1111.5269066667</ele>
        <time>2021-06-20T08:27:04Z</time>
      </trkpt>
      <trkpt lat="43.91206" lon="7.23088">
        <ele>1116.5270666667</ele>
        <time>2021-06-20T08:27:13Z</time>
      </trkpt>
      <trkpt lat="43.91208" lon="7.23098">
        <ele>1119.32728</ele>
        <time>2021-06-20T08:27:20Z</time>
      </trkpt>
      <trkpt lat="43.91212" lon="7.23109">
        <ele>1121.52738</ele>
        <time>2021-06-20T08:27:28Z</time>
      </trkpt>
      <trkpt lat="43.91215" lon="7.23119">
        <ele>1122.4275266667</ele>
        <time>2021-06-20T08:27:35Z</time>
      </trkpt>
      <trkpt lat="43.91211" lon="7.23129">
        <ele>1123.3282533333</ele>
        <time>2021-06-20T08:27:43Z</time>
      </trkpt>
      <trkpt lat="43.91206" lon="7.23137">
        <ele>1121.6290066667</ele>
        <time>2021-06-20T08:27:50Z</time>
      </trkpt>
      <trkpt lat="43.91202" lon="7.23147">
        <ele>1119.3297333333</ele>
        <time>2021-06-20T08:27:58Z</time>
      </trkpt>
      <trkpt lat="43.91198" lon="7.23157">
        <ele>1119.13044</ele>
        <time>2021-06-20T08:28:05Z</time>
      </trkpt>
      <trkpt lat="43.91198" lon="7.23169">
        <ele>1120.7309466667</ele>
        <time>2021-06-20T08:28:12Z</time>
      </trkpt>
      <trkpt lat="43.912" lon="7.23181">
        <ele>1121.5312466667</ele>
        <time>2021-06-20T08:28:19Z</time>
      </trkpt>
      <trkpt lat="43.91199" lon="7.23192">
        <ele>1121.9317733333</ele>
        <time>2021-06-20T08:28:26Z</time>
      </trkpt>
      <trkpt lat="43.91194" lon="7.23201">
        <ele>1121.2325266667</ele>
        <time>2021-06-20T08:28:38Z</time>
      </trkpt>
      <trkpt lat="43.91187" lon="7.23207">
        <ele>1121.03332</ele>
        <time>2021-06-20T08:28:46Z</time>
      </trkpt>
      <trkpt lat="43.91181" lon="7.23217">
        <ele>1121.1341533333</ele>
        <time>2021-06-20T08:28:53Z</time>
      </trkpt>
      <trkpt lat="43.9119" lon="7.23216">
        <ele>1120.53346</ele>
        <time>2021-06-20T08:29:16Z</time>
      </trkpt>
      <trkpt lat="43.91197" lon="7.23211">
        <ele>1119.43266</ele>
        <time>2021-06-20T08:29:27Z</time>
      </trkpt>
      <trkpt lat="43.91205" lon="7.23205">
        <ele>1117.9318</ele>
        <time>2021-06-20T08:29:37Z</time>
      </trkpt>
      <trkpt lat="43.91213" lon="7.232">
        <ele>1116.83098</ele>
        <time>2021-06-20T08:29:46Z</time>
      </trkpt>
      <trkpt lat="43.9122" lon="7.23194">
        <ele>1114.7301666667</ele>
        <time>2021-06-20T08:29:53Z</time>
      </trkpt>
      <trkpt lat="43.91223" lon="7.23184">
        <ele>1111.2295066667</ele>
        <time>2021-06-20T08:30:00Z</time>
      </trkpt>
      <trkpt lat="43.91225" lon="7.23172">
        <ele>1105.9288933333</ele>
        <time>2021-06-20T08:30:14Z</time>
      </trkpt>
      <trkpt lat="43.91233" lon="7.2317">
        <ele>1101.42814</ele>
        <time>2021-06-20T08:30:29Z</time>
      </trkpt>
      <trkpt lat="43.91241" lon="7.23176">
        <ele>1099.0277466667</ele>
        <time>2021-06-20T08:30:44Z</time>
      </trkpt>
      <trkpt lat="43.91246" lon="7.23165">
        <ele>1094.4269733333</ele>
        <time>2021-06-20T08:30:58Z</time>
      </trkpt>
      <trkpt lat="43.91244" lon="7.23153">
        <ele>1091.9266266667</ele>
        <time>2021-06-20T08:31:10Z</time>
      </trkpt>
      <trkpt lat="43.91252" lon="7.23154">
        <ele>1093.1260133333</ele>
        <time>2021-06-20T08:31:22Z</time>
      </trkpt>
      <trkpt lat="43.91259" lon="7.23161">
        <ele>1093.0257333333</ele>
        <time>2021-06-20T08:31:29Z</time>
      </trkpt>
      <trkpt lat="43.91264" lon="7.23171">
        <ele>1092.72574</ele>
        <time>2021-06-20T08:31:38Z</time>
      </trkpt>
      <trkpt lat="43.91269" lon="7.23162">
        <ele>1089.1249733333</ele>
        <time>2021-06-20T08:31:56Z</time>
      </trkpt>
      <trkpt lat="43.91268" lon="7.2315">
        <ele>1087.7245533333</ele>
        <time>2021-06-20T08:32:05Z</time>
      </trkpt>
      <trkpt lat="43.91266" lon="7.23138">
        <ele>1085.72426</ele>
        <time>2021-06-20T08:32:17Z</time>
      </trkpt>
      <trkpt lat="43.91273" lon="7.23133">
        <ele>1082.4234733333</ele>
        <time>2021-06-20T08:32:30Z</time>
      </trkpt>
      <trkpt lat="43.91281" lon="7.2314">
        <ele>1081.6231466667</ele>
        <time>2021-06-20T08:32:38Z</time>
      </trkpt>
      <trkpt lat="43.91288" lon="7.23145">
        <ele>1080.8227533333</ele>
        <time>2021-06-20T08:32:47Z</time>
      </trkpt>
      <trkpt lat="43.91296" lon="7.23151">
        <ele>1076.3224</ele>
        <time>2021-06-20T08:33:13Z</time>
      </trkpt>
      <trkpt lat="43.91304" lon="7.23153">
        <ele>1074.02184</ele>
        <time>2021-06-20T08:33:26Z</time>
      </trkpt>
      <trkpt lat="43.91312" lon="7.2315">
        <ele>1071.12106</ele>
        <time>2021-06-20T08:33:42Z</time>
      </trkpt>
      <trkpt lat="43.9132" lon="7.23146">
        <ele>1067.6202133333</ele>
        <time>2021-06-20T08:33:57Z</time>
      </trkpt>
      <trkpt lat="43.91326" lon="7.23144">
        <ele>1064.21964</ele>
        <time>2021-06-20T08:35:59Z</time>
      </trkpt>
      <trkpt lat="43.91333" lon="7.23136">
        <ele>1061.71882</ele>
        <time>2021-06-20T08:36:06Z</time>
      </trkpt>
      <trkpt lat="43.91341" lon="7.23133">
        <ele>1059.5180333333</ele>
        <time>2021-06-20T08:42:22Z</time>
      </trkpt>
      <trkpt lat="43.91347" lon="7.23125">
        <ele>1053.81722</ele>
        <time>2021-06-20T08:42:41Z</time>
      </trkpt>
      <trkpt lat="43.91356" lon="7.23123">
        <ele>1048.9164533333</ele>
        <time>2021-06-20T08:43:00Z</time>
      </trkpt>
      <trkpt lat="43.91362" lon="7.23131">
        <ele>1047.5162866667</ele>
        <time>2021-06-20T08:43:06Z</time>
      </trkpt>
      <trkpt lat="43.91366" lon="7.2314">
        <ele>1046.7163</ele>
        <time>2021-06-20T08:43:12Z</time>
      </trkpt>
      <trkpt lat="43.91371" lon="7.2315">
        <ele>1046.3163</ele>
        <time>2021-06-20T08:43:19Z</time>
      </trkpt>
      <trkpt lat="43.91378" lon="7.23142">
        <ele>1042.5154466667</ele>
        <time>2021-06-20T08:43:34Z</time>
      </trkpt>
      <trkpt lat="43.91379" lon="7.2313">
        <ele>1037.7148733333</ele>
        <time>2021-06-20T08:43:49Z</time>
      </trkpt>
      <trkpt lat="43.91387" lon="7.23134">
        <ele>1035.71444</ele>
        <time>2021-06-20T08:43:56Z</time>
      </trkpt>
      <trkpt lat="43.91394" lon="7.23141">
        <ele>1034.6141</ele>
        <time>2021-06-20T08:44:07Z</time>
      </trkpt>
      <trkpt lat="43.914" lon="7.2315">
        <ele>1035.3140066667</ele>
        <time>2021-06-20T08:44:37Z</time>
      </trkpt>
      <trkpt lat="43.91402" lon="7.23139">
        <ele>1033.6133733333</ele>
        <time>2021-06-20T08:44:51Z</time>
      </trkpt>
      <trkpt lat="43.91401" lon="7.23127">
        <ele>1032.8130466667</ele>
        <time>2021-06-20T08:45:00Z</time>
      </trkpt>
      <trkpt lat="43.91409" lon="7.23123">
        <ele>1026.81222</ele>
        <time>2021-06-20T08:45:17Z</time>
      </trkpt>
      <trkpt lat="43.91415" lon="7.23131">
        <ele>1024.41202</ele>
        <time>2021-06-20T08:45:24Z</time>
      </trkpt>
      <trkpt lat="43.91422" lon="7.23138">
        <ele>1023.31176</ele>
        <time>2021-06-20T08:45:32Z</time>
      </trkpt>
      <trkpt lat="43.9143" lon="7.23144">
        <ele>1020.9114</ele>
        <time>2021-06-20T08:45:42Z</time>
      </trkpt>
      <trkpt lat="43.91438" lon="7.23148">
        <ele>1018.4109066667</ele>
        <time>2021-06-20T08:45:51Z</time>
      </trkpt>
      <trkpt lat="43.91446" lon="7.23152">
        <ele>1015.8104</ele>
        <time>2021-06-20T08:46:02Z</time>
      </trkpt>
      <trkpt lat="43.91453" lon="7.23157">
        <ele>1014.01004</ele>
        <time>2021-06-20T08:46:11Z</time>
      </trkpt>
      <trkpt lat="43.91462" lon="7.23159">
        <ele>1012.4094333333</ele>
        <time>2021-06-20T08:46:21Z</time>
      </trkpt>
      <trkpt lat="43.9147" lon="7.23159">
        <ele>1010.9087333333</ele>
        <time>2021-06-20T08:46:29Z</time>
      </trkpt>
      <trkpt lat="43.91478" lon="7.23156">
        <ele>1009.80798</ele>
        <time>2021-06-20T08:46:38Z</time>
      </trkpt>
      <trkpt lat="43.91487" lon="7.23156">
        <ele>1008.90728</ele>
        <time>2021-06-20T08:46:46Z</time>
      </trkpt>
      <trkpt lat="43.91495" lon="7.23155">
        <ele>1008.40658</ele>
        <time>2021-06-20T08:46:53Z</time>
      </trkpt>
      <trkpt lat="43.91503" lon="7.23152">
        <ele>1008.7058</ele>
        <time>2021-06-20T08:47:01Z</time>
      </trkpt>
      <trkpt lat="43.91512" lon="7.23148">
        <ele>1008.9049733333</ele>
        <time>2021-06-20T08:47:08Z</time>
      </trkpt>
      <trkpt lat="43.9152" lon="7.23146">
        <ele>1008.8042066667</ele>
        <time>2021-06-20T08:47:15Z</time>
      </trkpt>
      <trkpt lat="43.91528" lon="7.23141">
        <ele>1007.4034</ele>
        <time>2021-06-20T08:47:22Z</time>
      </trkpt>
      <trkpt lat="43.91536" lon="7.23137">
        <ele>1006.4026066667</ele>
        <time>2021-06-20T08:47:29Z</time>
      </trkpt>
      <trkpt lat="43.91544" lon="7.23132">
        <ele>1005.9018</ele>
        <time>2021-06-20T08:47:36Z</time>
      </trkpt>
      <trkpt lat="43.91551" lon="7.23127">
        <ele>1005.70098</ele>
        <time>2021-06-20T08:47:43Z</time>
      </trkpt>
      <trkpt lat="43.91559" lon="7.2312">
        <ele>1005.3001133333</ele>
        <time>2021-06-20T08:47:50Z</time>
      </trkpt>
      <trkpt lat="43.91566" lon="7.23115">
        <ele>1005.1993266667</ele>
        <time>2021-06-20T08:47:58Z</time>
      </trkpt>
      <trkpt lat="43.91573" lon="7.2311">
        <ele>1005.5985533333</ele>
        <time>2021-06-20T08:48:04Z</time>
      </trkpt>
      <trkpt lat="43.91581" lon="7.23106">
        <ele>1004.1978133333</ele>
        <time>2021-06-20T08:48:11Z</time>
      </trkpt>
      <trkpt lat="43.91589" lon="7.23107">
        <ele>1002.4971666667</ele>
        <time>2021-06-20T08:48:18Z</time>
      </trkpt>
      <trkpt lat="43.91597" lon="7.23107">
        <ele>1001.6965</ele>
        <time>2021-06-20T08:48:25Z</time>
      </trkpt>
      <trkpt lat="43.91606" lon="7.23112">
        <ele>1001.1960333333</ele>
        <time>2021-06-20T08:48:32Z</time>
      </trkpt>
      <trkpt lat="43.91614" lon="7.23111">
        <ele>1000.1953266667</ele>
        <time>2021-06-20T08:48:42Z</time>
      </trkpt>
      <trkpt lat="43.91621" lon="7.23104">
        <ele>999.79452</ele>
        <time>2021-06-20T08:48:54Z</time>
      </trkpt>
      <trkpt lat="43.91624" lon="7.23094">
        <ele>999.59382</ele>
        <time>2021-06-20T08:49:03Z</time>
      </trkpt>
      <trkpt lat="43.91632" lon="7.23089">
        <ele>998.19302</ele>
        <time>2021-06-20T08:49:18Z</time>
      </trkpt>
      <trkpt lat="43.9164" lon="7.23088">
        <ele>997.29234666667</ele>
        <time>2021-06-20T08:49:27Z</time>
      </trkpt>
      <trkpt lat="43.91648" lon="7.23085">
        <ele>995.99156</ele>
        <time>2021-06-20T08:49:37Z</time>
      </trkpt>
      <trkpt lat="43.91656" lon="7.23079">
        <ele>992.79071333333</ele>
        <time>2021-06-20T08:49:50Z</time>
      </trkpt>
      <trkpt lat="43.91663" lon="7.23071">
        <ele>991.48985333333</ele>
        <time>2021-06-20T08:50:01Z</time>
      </trkpt>
      <trkpt lat="43.91669" lon="7.23063">
        <ele>990.78904666667</ele>
        <time>2021-06-20T08:50:10Z</time>
      </trkpt>
      <trkpt lat="43.91676" lon="7.23057">
        <ele>990.18819333333</ele>
        <time>2021-06-20T08:50:21Z</time>
      </trkpt>
      <trkpt lat="43.91682" lon="7.23049">
        <ele>988.88738</ele>
        <time>2021-06-20T08:50:30Z</time>
      </trkpt>
      <trkpt lat="43.9169" lon="7.23043">
        <ele>987.68650666667</ele>
        <time>2021-06-20T08:50:39Z</time>
      </trkpt>
      <trkpt lat="43.91698" lon="7.23038">
        <ele>985.68570666667</ele>
        <time>2021-06-20T08:50:54Z</time>
      </trkpt>
      <trkpt lat="43.91706" lon="7.23035">
        <ele>983.68494666667</ele>
        <time>2021-06-20T08:51:03Z</time>
      </trkpt>
      <trkpt lat="43.91715" lon="7.23036">
        <ele>980.78424666667</ele>
        <time>2021-06-20T08:51:17Z</time>
      </trkpt>
      <trkpt lat="43.91724" lon="7.23036">
        <ele>977.98357333333</ele>
        <time>2021-06-20T08:51:26Z</time>
      </trkpt>
      <trkpt lat="43.91732" lon="7.23038">
        <ele>976.18299333333</ele>
        <time>2021-06-20T08:51:33Z</time>
      </trkpt>
      <trkpt lat="43.9174" lon="7.23038">
        <ele>971.78230666667</ele>
        <time>2021-06-20T08:51:44Z</time>
      </trkpt>
      <trkpt lat="43.91749" lon="7.2304">
        <ele>969.78172666667</ele>
        <time>2021-06-20T08:51:53Z</time>
      </trkpt>
      <trkpt lat="43.91757" lon="7.23038">
        <ele>969.48098</ele>
        <time>2021-06-20T08:52:01Z</time>
      </trkpt>
      <trkpt lat="43.91764" lon="7.23043">
        <ele>969.48060666667</ele>
        <time>2021-06-20T08:52:07Z</time>
      </trkpt>
      <trkpt lat="43.91772" lon="7.23049">
        <ele>969.18022</ele>
        <time>2021-06-20T08:52:14Z</time>
      </trkpt>
      <trkpt lat="43.91777" lon="7.23056">
        <ele>968.98008</ele>
        <time>2021-06-20T08:52:20Z</time>
      </trkpt>
      <trkpt lat="43.91784" lon="7.23063">
        <ele>969.27980666667</ele>
        <time>2021-06-20T08:52:29Z</time>
      </trkpt>
      <trkpt lat="43.91789" lon="7.23073">
        <ele>969.97982</ele>
        <time>2021-06-20T08:52:39Z</time>
      </trkpt>
      <trkpt lat="43.91788" lon="7.23084">
        <ele>969.98030666667</ele>
        <time>2021-06-20T08:52:46Z</time>
      </trkpt>
      <trkpt lat="43.91793" lon="7.23094">
        <ele>963.88036</ele>
        <time>2021-06-20T08:52:54Z</time>
      </trkpt>
      <trkpt lat="43.91798" lon="7.23103">
        <ele>963.08024666667</ele>
        <time>2021-06-20T08:53:00Z</time>
      </trkpt>
      <trkpt lat="43.91804" lon="7.2311">
        <ele>962.48010666667</ele>
        <time>2021-06-20T08:53:08Z</time>
      </trkpt>
      <trkpt lat="43.91809" lon="7.2312">
        <ele>961.18008</ele>
        <time>2021-06-20T08:53:15Z</time>
      </trkpt>
      <trkpt lat="43.91811" lon="7.23132">
        <ele>962.38040666667</ele>
        <time>2021-06-20T08:53:22Z</time>
      </trkpt>
      <trkpt lat="43.91812" lon="7.23144">
        <ele>963.78084666667</ele>
        <time>2021-06-20T08:53:29Z</time>
      </trkpt>
      <trkpt lat="43.91817" lon="7.23153">
        <ele>964.28075333333</ele>
        <time>2021-06-20T08:53:40Z</time>
      </trkpt>
      <trkpt lat="43.91824" lon="7.2316">
        <ele>963.88045333333</ele>
        <time>2021-06-20T08:53:52Z</time>
      </trkpt>
      <trkpt lat="43.91832" lon="7.23166">
        <ele>962.88009333333</ele>
        <time>2021-06-20T08:54:01Z</time>
      </trkpt>
      <trkpt lat="43.91837" lon="7.23176">
        <ele>962.18006666667</ele>
        <time>2021-06-20T08:54:08Z</time>
      </trkpt>
      <trkpt lat="43.91842" lon="7.23186">
        <ele>960.68006666667</ele>
        <time>2021-06-20T08:54:17Z</time>
      </trkpt>
      <trkpt lat="43.9185" lon="7.23192">
        <ele>958.57968</ele>
        <time>2021-06-20T08:54:30Z</time>
      </trkpt>
      <trkpt lat="43.91857" lon="7.23199">
        <ele>957.0794</ele>
        <time>2021-06-20T08:54:38Z</time>
      </trkpt>
      <trkpt lat="43.91864" lon="7.23204">
        <ele>955.77903333333</ele>
        <time>2021-06-20T08:54:46Z</time>
      </trkpt>
      <trkpt lat="43.91873" lon="7.23207">
        <ele>953.97848666667</ele>
        <time>2021-06-20T08:54:56Z</time>
      </trkpt>
      <trkpt lat="43.91877" lon="7.23217">
        <ele>952.27853333333</ele>
        <time>2021-06-20T08:55:05Z</time>
      </trkpt>
      <trkpt lat="43.9188" lon="7.23229">
        <ele>950.97878</ele>
        <time>2021-06-20T08:55:15Z</time>
      </trkpt>
      <trkpt lat="43.9188" lon="7.23241">
        <ele>950.57921333333</ele>
        <time>2021-06-20T08:55:23Z</time>
      </trkpt>
      <trkpt lat="43.91878" lon="7.23253">
        <ele>948.87984666667</ele>
        <time>2021-06-20T08:55:34Z</time>
      </trkpt>
      <trkpt lat="43.91874" lon="7.23261">
        <ele>946.6805</ele>
        <time>2021-06-20T08:55:45Z</time>
      </trkpt>
      <trkpt lat="43.9187" lon="7.23271">
        <ele>944.28125333333</ele>
        <time>2021-06-20T08:55:51Z</time>
      </trkpt>
      <trkpt lat="43.91864" lon="7.2328">
        <ele>941.38204666667</ele>
        <time>2021-06-20T08:55:59Z</time>
      </trkpt>
      <trkpt lat="43.91857" lon="7.23285">
        <ele>939.78286</ele>
        <time>2021-06-20T08:56:09Z</time>
      </trkpt>
      <trkpt lat="43.91849" lon="7.2329">
        <ele>937.78366666667</ele>
        <time>2021-06-20T08:56:20Z</time>
      </trkpt>
      <trkpt lat="43.91844" lon="7.23298">
        <ele>941.18445333333</ele>
        <time>2021-06-20T08:56:30Z</time>
      </trkpt>
      <trkpt lat="43.91847" lon="7.2331">
        <ele>942.08464</ele>
        <time>2021-06-20T08:56:40Z</time>
      </trkpt>
      <trkpt lat="43.91853" lon="7.23317">
        <ele>942.18440666667</ele>
        <time>2021-06-20T08:56:48Z</time>
      </trkpt>
      <trkpt lat="43.9186" lon="7.23324">
        <ele>941.68418</ele>
        <time>2021-06-20T08:56:58Z</time>
      </trkpt>
      <trkpt lat="43.91865" lon="7.23333">
        <ele>940.48412666667</ele>
        <time>2021-06-20T08:57:09Z</time>
      </trkpt>
      <trkpt lat="43.91871" lon="7.23343">
        <ele>939.48407333333</ele>
        <time>2021-06-20T08:57:18Z</time>
      </trkpt>
      <trkpt lat="43.91875" lon="7.23354">
        <ele>938.58417333333</ele>
        <time>2021-06-20T08:57:26Z</time>
      </trkpt>
      <trkpt lat="43.91883" lon="7.23358">
        <ele>931.7837</ele>
        <time>2021-06-20T08:57:41Z</time>
      </trkpt>
      <trkpt lat="43.9189" lon="7.23362">
        <ele>925.78325333333</ele>
        <time>2021-06-20T08:58:06Z</time>
      </trkpt>
      <trkpt lat="43.91898" lon="7.23367">
        <ele>925.28284</ele>
        <time>2021-06-20T08:58:14Z</time>
      </trkpt>
      <trkpt lat="43.91904" lon="7.23376">
        <ele>920.98268666667</ele>
        <time>2021-06-20T08:58:25Z</time>
      </trkpt>
      <trkpt lat="43.91913" lon="7.23373">
        <ele>918.38189333333</ele>
        <time>2021-06-20T08:58:33Z</time>
      </trkpt>
      <trkpt lat="43.91921" lon="7.23375">
        <ele>917.08135333333</ele>
        <time>2021-06-20T08:58:40Z</time>
      </trkpt>
      <trkpt lat="43.91929" lon="7.2338">
        <ele>916.48092</ele>
        <time>2021-06-20T08:58:48Z</time>
      </trkpt>
      <trkpt lat="43.91936" lon="7.23385">
        <ele>916.38049333333</ele>
        <time>2021-06-20T08:58:56Z</time>
      </trkpt>
      <trkpt lat="43.91943" lon="7.23391">
        <ele>917.98022666667</ele>
        <time>2021-06-20T08:59:06Z</time>
      </trkpt>
      <trkpt lat="43.9195" lon="7.23398">
        <ele>917.27988</ele>
        <time>2021-06-20T08:59:15Z</time>
      </trkpt>
      <trkpt lat="43.91947" lon="7.23409">
        <ele>901.98062666667</ele>
        <time>2021-06-20T08:59:33Z</time>
      </trkpt>
      <trkpt lat="43.9194" lon="7.23416">
        <ele>904.18144666667</ele>
        <time>2021-06-20T08:59:46Z</time>
      </trkpt>
      <trkpt lat="43.91931" lon="7.23417">
        <ele>905.28218</ele>
        <time>2021-06-20T08:59:56Z</time>
      </trkpt>
      <trkpt lat="43.91923" lon="7.23422">
        <ele>906.28302666667</ele>
        <time>2021-06-20T09:00:04Z</time>
      </trkpt>
      <trkpt lat="43.91915" lon="7.23424">
        <ele>905.6838</ele>
        <time>2021-06-20T09:00:13Z</time>
      </trkpt>
      <trkpt lat="43.91907" lon="7.23425">
        <ele>905.98445333333</ele>
        <time>2021-06-20T09:00:21Z</time>
      </trkpt>
      <trkpt lat="43.91899" lon="7.23424">
        <ele>901.28504</ele>
        <time>2021-06-20T09:00:29Z</time>
      </trkpt>
      <trkpt lat="43.91892" lon="7.2343">
        <ele>897.68582</ele>
        <time>2021-06-20T09:00:35Z</time>
      </trkpt>
      <trkpt lat="43.91898" lon="7.23439">
        <ele>893.18571333333</ele>
        <time>2021-06-20T09:01:05Z</time>
      </trkpt>
      <trkpt lat="43.91903" lon="7.23447">
        <ele>893.6856</ele>
        <time>2021-06-20T09:01:11Z</time>
      </trkpt>
      <trkpt lat="43.9191" lon="7.23452">
        <ele>893.88526666667</ele>
        <time>2021-06-20T09:01:18Z</time>
      </trkpt>
      <trkpt lat="43.91917" lon="7.23459">
        <ele>886.585</ele>
        <time>2021-06-20T09:01:28Z</time>
      </trkpt>
      <trkpt lat="43.91925" lon="7.23465">
        <ele>883.18458666667</ele>
        <time>2021-06-20T09:01:37Z</time>
      </trkpt>
      <trkpt lat="43.91932" lon="7.23471">
        <ele>881.28429333333</ele>
        <time>2021-06-20T09:01:47Z</time>
      </trkpt>
      <trkpt lat="43.91939" lon="7.23476">
        <ele>880.78392</ele>
        <time>2021-06-20T09:01:56Z</time>
      </trkpt>
      <trkpt lat="43.91947" lon="7.2348">
        <ele>879.08346</ele>
        <time>2021-06-20T09:02:04Z</time>
      </trkpt>
      <trkpt lat="43.91954" lon="7.23486">
        <ele>877.78309333333</ele>
        <time>2021-06-20T09:02:11Z</time>
      </trkpt>
      <trkpt lat="43.91962" lon="7.23493">
        <ele>876.68278</ele>
        <time>2021-06-20T09:02:20Z</time>
      </trkpt>
      <trkpt lat="43.91968" lon="7.23501">
        <ele>872.18262666667</ele>
        <time>2021-06-20T09:02:30Z</time>
      </trkpt>
      <trkpt lat="43.91975" lon="7.23502">
        <ele>870.58206</ele>
        <time>2021-06-20T09:02:39Z</time>
      </trkpt>
      <trkpt lat="43.91982" lon="7.23508">
        <ele>870.08174</ele>
        <time>2021-06-20T09:02:46Z</time>
      </trkpt>
      <trkpt lat="43.91989" lon="7.23514">
        <ele>868.18142666667</ele>
        <time>2021-06-20T09:02:55Z</time>
      </trkpt>
      <trkpt lat="43.91997" lon="7.2352">
        <ele>865.48102</ele>
        <time>2021-06-20T09:03:06Z</time>
      </trkpt>
      <trkpt lat="43.92004" lon="7.23525">
        <ele>862.78066666667</ele>
        <time>2021-06-20T09:03:15Z</time>
      </trkpt>
      <trkpt lat="43.92012" lon="7.23528">
        <ele>859.38014</ele>
        <time>2021-06-20T09:03:25Z</time>
      </trkpt>
      <trkpt lat="43.9202" lon="7.23532">
        <ele>856.67964666667</ele>
        <time>2021-06-20T09:03:33Z</time>
      </trkpt>
      <trkpt lat="43.92028" lon="7.23539">
        <ele>854.57937333333</ele>
        <time>2021-06-20T09:03:42Z</time>
      </trkpt>
      <trkpt lat="43.92035" lon="7.23546">
        <ele>851.57905333333</ele>
        <time>2021-06-20T09:03:53Z</time>
      </trkpt>
      <trkpt lat="43.92026" lon="7.23549">
        <ele>856.67985333333</ele>
        <time>2021-06-20T09:04:15Z</time>
      </trkpt>
      <trkpt lat="43.92018" lon="7.23549">
        <ele>857.08053333333</ele>
        <time>2021-06-20T09:04:24Z</time>
      </trkpt>
      <trkpt lat="43.9201" lon="7.23552">
        <ele>858.48126666667</ele>
        <time>2021-06-20T09:04:30Z</time>
      </trkpt>
      <trkpt lat="43.92003" lon="7.23558">
        <ele>860.98207333333</ele>
        <time>2021-06-20T09:04:35Z</time>
      </trkpt>
      <trkpt lat="43.91996" lon="7.23562">
        <ele>862.28278</ele>
        <time>2021-06-20T09:04:41Z</time>
      </trkpt>
      <trkpt lat="43.91987" lon="7.23562">
        <ele>862.4835</ele>
        <time>2021-06-20T09:04:49Z</time>
      </trkpt>
      <trkpt lat="43.91979" lon="7.23564">
        <ele>862.78424</ele>
        <time>2021-06-20T09:04:57Z</time>
      </trkpt>
      <trkpt lat="43.91971" lon="7.23565">
        <ele>862.08494666667</ele>
        <time>2021-06-20T09:05:04Z</time>
      </trkpt>
      <trkpt lat="43.91962" lon="7.23563">
        <ele>861.18556</ele>
        <time>2021-06-20T09:05:12Z</time>
      </trkpt>
      <trkpt lat="43.91954" lon="7.23565">
        <ele>860.58627333333</ele>
        <time>2021-06-20T09:05:19Z</time>
      </trkpt>
      <trkpt lat="43.91946" lon="7.23567">
        <ele>861.68704</ele>
        <time>2021-06-20T09:05:27Z</time>
      </trkpt>
      <trkpt lat="43.91937" lon="7.23567">
        <ele>862.38774</ele>
        <time>2021-06-20T09:05:35Z</time>
      </trkpt>
      <trkpt lat="43.91928" lon="7.23567">
        <ele>862.48842</ele>
        <time>2021-06-20T09:05:43Z</time>
      </trkpt>
      <trkpt lat="43.9192" lon="7.23571">
        <ele>862.48919333333</ele>
        <time>2021-06-20T09:05:50Z</time>
      </trkpt>
      <trkpt lat="43.91913" lon="7.23571">
        <ele>861.38984</ele>
        <time>2021-06-20T09:05:57Z</time>
      </trkpt>
      <trkpt lat="43.91904" lon="7.23569">
        <ele>859.29046</ele>
        <time>2021-06-20T09:06:05Z</time>
      </trkpt>
      <trkpt lat="43.91897" lon="7.23573">
        <ele>859.49118</ele>
        <time>2021-06-20T09:06:12Z</time>
      </trkpt>
      <trkpt lat="43.91902" lon="7.23582">
        <ele>859.39112</ele>
        <time>2021-06-20T09:06:25Z</time>
      </trkpt>
      <trkpt lat="43.91895" lon="7.23574">
        <ele>855.39134</ele>
        <time>2021-06-20T09:06:37Z</time>
      </trkpt>
      <trkpt lat="43.91887" lon="7.23579">
        <ele>848.7922</ele>
        <time>2021-06-20T09:07:00Z</time>
      </trkpt>
      <trkpt lat="43.91892" lon="7.23588">
        <ele>849.19218666667</ele>
        <time>2021-06-20T09:08:10Z</time>
      </trkpt>
      <trkpt lat="43.91891" lon="7.236">
        <ele>850.19272666667</ele>
        <time>2021-06-20T09:08:24Z</time>
      </trkpt>
      <trkpt lat="43.91891" lon="7.23612">
        <ele>850.89323333333</ele>
        <time>2021-06-20T09:08:42Z</time>
      </trkpt>
      <trkpt lat="43.91887" lon="7.23623">
        <ele>849.99398</ele>
        <time>2021-06-20T09:08:50Z</time>
      </trkpt>
      <trkpt lat="43.91886" lon="7.23634">
        <ele>846.39446666667</ele>
        <time>2021-06-20T09:09:08Z</time>
      </trkpt>
      <trkpt lat="43.91885" lon="7.23647">
        <ele>842.0951</ele>
        <time>2021-06-20T09:09:21Z</time>
      </trkpt>
      <trkpt lat="43.91886" lon="7.23658">
        <ele>836.89549333333</ele>
        <time>2021-06-20T09:09:33Z</time>
      </trkpt>
      <trkpt lat="43.91886" lon="7.2367">
        <ele>833.89597333333</ele>
        <time>2021-06-20T09:09:47Z</time>
      </trkpt>
      <trkpt lat="43.91886" lon="7.23682">
        <ele>827.39641333333</ele>
        <time>2021-06-20T09:10:00Z</time>
      </trkpt>
      <trkpt lat="43.91885" lon="7.23694">
        <ele>822.09695333333</ele>
        <time>2021-06-20T09:10:16Z</time>
      </trkpt>
      <trkpt lat="43.9188" lon="7.23704">
        <ele>816.89778</ele>
        <time>2021-06-20T09:10:30Z</time>
      </trkpt>
      <trkpt lat="43.9188" lon="7.23715">
        <ele>814.69818</ele>
        <time>2021-06-20T09:10:38Z</time>
      </trkpt>
      <trkpt lat="43.9188" lon="7.23727">
        <ele>813.09868666667</ele>
        <time>2021-06-20T09:10:52Z</time>
      </trkpt>
      <trkpt lat="43.91874" lon="7.23736">
        <ele>808.79954</ele>
        <time>2021-06-20T09:11:05Z</time>
      </trkpt>
      <trkpt lat="43.91868" lon="7.23745">
        <ele>807.50033333333</ele>
        <time>2021-06-20T09:11:14Z</time>
      </trkpt>
      <trkpt lat="43.91861" lon="7.2375">
        <ele>805.10111333333</ele>
        <time>2021-06-20T09:11:25Z</time>
      </trkpt>
      <trkpt lat="43.91854" lon="7.23756">
        <ele>803.00194666667</ele>
        <time>2021-06-20T09:11:34Z</time>
      </trkpt>
      <trkpt lat="43.91846" lon="7.2376">
        <ele>798.10272</ele>
        <time>2021-06-20T09:11:42Z</time>
      </trkpt>
      <trkpt lat="43.9184" lon="7.23768">
        <ele>795.50348666667</ele>
        <time>2021-06-20T09:11:48Z</time>
      </trkpt>
      <trkpt lat="43.91834" lon="7.23776">
        <ele>790.80434666667</ele>
        <time>2021-06-20T09:11:54Z</time>
      </trkpt>
      <trkpt lat="43.91827" lon="7.23783">
        <ele>787.60519333333</ele>
        <time>2021-06-20T09:12:02Z</time>
      </trkpt>
      <trkpt lat="43.91819" lon="7.23787">
        <ele>784.10596</ele>
        <time>2021-06-20T09:12:14Z</time>
      </trkpt>
      <trkpt lat="43.9181" lon="7.23786">
        <ele>783.90662</ele>
        <time>2021-06-20T09:12:21Z</time>
      </trkpt>
      <trkpt lat="43.91804" lon="7.23793">
        <ele>781.4074</ele>
        <time>2021-06-20T09:12:31Z</time>
      </trkpt>
      <trkpt lat="43.91798" lon="7.23801">
        <ele>781.10820666667</ele>
        <time>2021-06-20T09:12:38Z</time>
      </trkpt>
      <trkpt lat="43.91797" lon="7.23813">
        <ele>779.90881333333</ele>
        <time>2021-06-20T09:12:44Z</time>
      </trkpt>
      <trkpt lat="43.91796" lon="7.23825">
        <ele>783.50933333333</ele>
        <time>2021-06-20T09:12:53Z</time>
      </trkpt>
      <trkpt lat="43.9179" lon="7.23832">
        <ele>783.91011333333</ele>
        <time>2021-06-20T09:12:59Z</time>
      </trkpt>
      <trkpt lat="43.91789" lon="7.23844">
        <ele>782.51060666667</ele>
        <time>2021-06-20T09:13:08Z</time>
      </trkpt>
      <trkpt lat="43.91791" lon="7.23855">
        <ele>782.31094666667</ele>
        <time>2021-06-20T09:13:17Z</time>
      </trkpt>
      <trkpt lat="43.91787" lon="7.23864">
        <ele>782.2116</ele>
        <time>2021-06-20T09:13:22Z</time>
      </trkpt>
      <trkpt lat="43.91787" lon="7.23877">
        <ele>781.81211333333</ele>
        <time>2021-06-20T09:13:28Z</time>
      </trkpt>
      <trkpt lat="43.91781" lon="7.23886">
        <ele>781.41295333333</ele>
        <time>2021-06-20T09:13:37Z</time>
      </trkpt>
      <trkpt lat="43.91778" lon="7.23897">
        <ele>775.41361333333</ele>
        <time>2021-06-20T09:13:47Z</time>
      </trkpt>
      <trkpt lat="43.91775" lon="7.23907">
        <ele>777.9143</ele>
        <time>2021-06-20T09:13:54Z</time>
      </trkpt>
      <trkpt lat="43.91773" lon="7.23919">
        <ele>779.01494</ele>
        <time>2021-06-20T09:14:03Z</time>
      </trkpt>
      <trkpt lat="43.91765" lon="7.23921">
        <ele>780.41563333333</ele>
        <time>2021-06-20T09:14:11Z</time>
      </trkpt>
      <trkpt lat="43.91771" lon="7.2393">
        <ele>774.51556666667</ele>
        <time>2021-06-20T09:14:37Z</time>
      </trkpt>
      <trkpt lat="43.91772" lon="7.23943">
        <ele>771.51596666667</ele>
        <time>2021-06-20T09:14:49Z</time>
      </trkpt>
      <trkpt lat="43.91776" lon="7.23953">
        <ele>767.21608666667</ele>
        <time>2021-06-20T09:15:05Z</time>
      </trkpt>
      <trkpt lat="43.9178" lon="7.23963">
        <ele>765.5161</ele>
        <time>2021-06-20T09:15:20Z</time>
      </trkpt>
      <trkpt lat="43.91784" lon="7.23973">
        <ele>761.91619333333</ele>
        <time>2021-06-20T09:17:36Z</time>
      </trkpt>
      <trkpt lat="43.91788" lon="7.23984">
        <ele>760.31632666667</ele>
        <time>2021-06-20T09:17:46Z</time>
      </trkpt>
      <trkpt lat="43.91791" lon="7.23995">
        <ele>759.21656666667</ele>
        <time>2021-06-20T09:17:57Z</time>
      </trkpt>
      <trkpt lat="43.91789" lon="7.24008">
        <ele>759.41715333333</ele>
        <time>2021-06-20T09:18:07Z</time>
      </trkpt>
      <trkpt lat="43.91787" lon="7.24019">
        <ele>755.21785333333</ele>
        <time>2021-06-20T09:18:43Z</time>
      </trkpt>
      <trkpt lat="43.91787" lon="7.24031">
        <ele>755.11824</ele>
        <time>2021-06-20T09:18:51Z</time>
      </trkpt>
      <trkpt lat="43.91786" lon="7.24042">
        <ele>758.81879333333</ele>
        <time>2021-06-20T09:18:58Z</time>
      </trkpt>
      <trkpt lat="43.91788" lon="7.24054">
        <ele>754.9191</ele>
        <time>2021-06-20T09:19:07Z</time>
      </trkpt>
      <trkpt lat="43.91785" lon="7.24064">
        <ele>753.41977333333</ele>
        <time>2021-06-20T09:19:13Z</time>
      </trkpt>
      <trkpt lat="43.91785" lon="7.24076">
        <ele>754.82026666667</ele>
        <time>2021-06-20T09:19:21Z</time>
      </trkpt>
      <trkpt lat="43.91786" lon="7.24088">
        <ele>752.72069333333</ele>
        <time>2021-06-20T09:19:29Z</time>
      </trkpt>
      <trkpt lat="43.91793" lon="7.24091">
        <ele>750.52017333333</ele>
        <time>2021-06-20T09:19:37Z</time>
      </trkpt>
      <trkpt lat="43.91802" lon="7.24094">
        <ele>745.41962666667</ele>
        <time>2021-06-20T09:19:47Z</time>
      </trkpt>
      <trkpt lat="43.91809" lon="7.24099">
        <ele>742.01924666667</ele>
        <time>2021-06-20T09:19:57Z</time>
      </trkpt>
      <trkpt lat="43.91811" lon="7.2411">
        <ele>739.81956</ele>
        <time>2021-06-20T09:20:06Z</time>
      </trkpt>
      <trkpt lat="43.91817" lon="7.24118">
        <ele>737.91936</ele>
        <time>2021-06-20T09:20:22Z</time>
      </trkpt>
      <trkpt lat="43.91808" lon="7.2412">
        <ele>737.22015333333</ele>
        <time>2021-06-20T09:20:35Z</time>
      </trkpt>
      <trkpt lat="43.91801" lon="7.24124">
        <ele>735.92091333333</ele>
        <time>2021-06-20T09:20:42Z</time>
      </trkpt>
      <trkpt lat="43.91794" lon="7.24129">
        <ele>733.82168666667</ele>
        <time>2021-06-20T09:20:48Z</time>
      </trkpt>
      <trkpt lat="43.91786" lon="7.24135">
        <ele>731.32250666667</ele>
        <time>2021-06-20T09:20:55Z</time>
      </trkpt>
      <trkpt lat="43.91782" lon="7.24144">
        <ele>730.62323333333</ele>
        <time>2021-06-20T09:21:00Z</time>
      </trkpt>
      <trkpt lat="43.91775" lon="7.24152">
        <ele>734.12406</ele>
        <time>2021-06-20T09:21:07Z</time>
      </trkpt>
      <trkpt lat="43.91766" lon="7.24152">
        <ele>731.62478</ele>
        <time>2021-06-20T09:21:23Z</time>
      </trkpt>
      <trkpt lat="43.91759" lon="7.24156">
        <ele>730.32554</ele>
        <time>2021-06-20T09:21:32Z</time>
      </trkpt>
      <trkpt lat="43.91755" lon="7.24165">
        <ele>726.72621333333</ele>
        <time>2021-06-20T09:22:34Z</time>
      </trkpt>
      <trkpt lat="43.91752" lon="7.24177">
        <ele>727.42689333333</ele>
        <time>2021-06-20T09:22:48Z</time>
      </trkpt>
      <trkpt lat="43.91747" lon="7.24186">
        <ele>723.12769333333</ele>
        <time>2021-06-20T09:22:56Z</time>
      </trkpt>
      <trkpt lat="43.91742" lon="7.24196">
        <ele>724.82846666667</ele>
        <time>2021-06-20T09:23:10Z</time>
      </trkpt>
      <trkpt lat="43.91734" lon="7.24197">
        <ele>724.62914</ele>
        <time>2021-06-20T09:23:20Z</time>
      </trkpt>
      <trkpt lat="43.91727" lon="7.24203">
        <ele>725.92995333333</ele>
        <time>2021-06-20T09:23:28Z</time>
      </trkpt>
      <trkpt lat="43.91722" lon="7.24213">
        <ele>728.43076</ele>
        <time>2021-06-20T09:23:36Z</time>
      </trkpt>
      <trkpt lat="43.91718" lon="7.24224">
        <ele>728.33152666667</ele>
        <time>2021-06-20T09:23:44Z</time>
      </trkpt>
      <trkpt lat="43.91718" lon="7.24236">
        <ele>727.73200666667</ele>
        <time>2021-06-20T09:23:51Z</time>
      </trkpt>
      <trkpt lat="43.91717" lon="7.24247">
        <ele>727.23253333333</ele>
        <time>2021-06-20T09:23:58Z</time>
      </trkpt>
      <trkpt lat="43.91716" lon="7.24258">
        <ele>725.73301333333</ele>
        <time>2021-06-20T09:24:06Z</time>
      </trkpt>
      <trkpt lat="43.91716" lon="7.2427">
        <ele>725.23356</ele>
        <time>2021-06-20T09:24:14Z</time>
      </trkpt>
      <trkpt lat="43.91716" lon="7.24282">
        <ele>725.53402666667</ele>
        <time>2021-06-20T09:24:21Z</time>
      </trkpt>
      <trkpt lat="43.91713" lon="7.24293">
        <ele>727.1347</ele>
        <time>2021-06-20T09:24:33Z</time>
      </trkpt>
      <trkpt lat="43.91709" lon="7.24303">
        <ele>726.53538666667</ele>
        <time>2021-06-20T09:24:41Z</time>
      </trkpt>
      <trkpt lat="43.91711" lon="7.24315">
        <ele>725.13572666667</ele>
        <time>2021-06-20T09:24:48Z</time>
      </trkpt>
      <trkpt lat="43.91712" lon="7.24327">
        <ele>723.63614666667</ele>
        <time>2021-06-20T09:24:55Z</time>
      </trkpt>
      <trkpt lat="43.9171" lon="7.24339">
        <ele>723.83678666667</ele>
        <time>2021-06-20T09:25:04Z</time>
      </trkpt>
      <trkpt lat="43.91709" lon="7.24351">
        <ele>722.43737333333</ele>
        <time>2021-06-20T09:25:14Z</time>
      </trkpt>
      <trkpt lat="43.91705" lon="7.2434">
        <ele>723.03722666667</ele>
        <time>2021-06-20T09:26:02Z</time>
      </trkpt>
      <trkpt lat="43.91707" lon="7.24329">
        <ele>721.83663333333</ele>
        <time>2021-06-20T09:26:29Z</time>
      </trkpt>
      <trkpt lat="43.91702" lon="7.24319">
        <ele>721.93656666667</ele>
        <time>2021-06-20T09:26:45Z</time>
      </trkpt>
      <trkpt lat="43.91695" lon="7.24326">
        <ele>721.13742666667</ele>
        <time>2021-06-20T09:27:10Z</time>
      </trkpt>
      <trkpt lat="43.91693" lon="7.24337">
        <ele>719.33802666667</ele>
        <time>2021-06-20T09:27:35Z</time>
      </trkpt>
      <trkpt lat="43.91693" lon="7.24349">
        <ele>719.03852666667</ele>
        <time>2021-06-20T09:27:43Z</time>
      </trkpt>
      <trkpt lat="43.91694" lon="7.24359">
        <ele>718.03885333333</ele>
        <time>2021-06-20T09:28:47Z</time>
      </trkpt>
      <trkpt lat="43.917" lon="7.24367">
        <ele>712.73866</ele>
        <time>2021-06-20T09:28:59Z</time>
      </trkpt>
      <trkpt lat="43.91706" lon="7.24377">
        <ele>712.73862</ele>
        <time>2021-06-20T09:29:07Z</time>
      </trkpt>
      <trkpt lat="43.91712" lon="7.24384">
        <ele>712.53839333333</ele>
        <time>2021-06-20T09:29:23Z</time>
      </trkpt>
      <trkpt lat="43.91716" lon="7.24395">
        <ele>713.53852666667</ele>
        <time>2021-06-20T09:29:35Z</time>
      </trkpt>
      <trkpt lat="43.91716" lon="7.24406">
        <ele>713.63897333333</ele>
        <time>2021-06-20T09:29:45Z</time>
      </trkpt>
      <trkpt lat="43.91716" lon="7.24418">
        <ele>714.43940666667</ele>
        <time>2021-06-20T09:29:54Z</time>
      </trkpt>
      <trkpt lat="43.91716" lon="7.24429">
        <ele>715.03992</ele>
        <time>2021-06-20T09:30:01Z</time>
      </trkpt>
      <trkpt lat="43.91713" lon="7.2444">
        <ele>715.84052666667</ele>
        <time>2021-06-20T09:30:12Z</time>
      </trkpt>
      <trkpt lat="43.91712" lon="7.24452">
        <ele>717.34114</ele>
        <time>2021-06-20T09:30:22Z</time>
      </trkpt>
      <trkpt lat="43.91706" lon="7.24462">
        <ele>718.34196666667</ele>
        <time>2021-06-20T09:30:34Z</time>
      </trkpt>
      <trkpt lat="43.91705" lon="7.24474">
        <ele>718.94254</ele>
        <time>2021-06-20T09:30:45Z</time>
      </trkpt>
      <trkpt lat="43.91707" lon="7.24485">
        <ele>722.04284</ele>
        <time>2021-06-20T09:30:58Z</time>
      </trkpt>
      <trkpt lat="43.91712" lon="7.24496">
        <ele>728.6429</ele>
        <time>2021-06-20T09:31:11Z</time>
      </trkpt>
      <trkpt lat="43.91714" lon="7.24508">
        <ele>729.34324</ele>
        <time>2021-06-20T09:31:31Z</time>
      </trkpt>
      <trkpt lat="43.91715" lon="7.24519">
        <ele>729.64351333333</ele>
        <time>2021-06-20T09:31:37Z</time>
      </trkpt>
      <trkpt lat="43.91717" lon="7.24531">
        <ele>730.64390666667</ele>
        <time>2021-06-20T09:31:45Z</time>
      </trkpt>
      <trkpt lat="43.9172" lon="7.24542">
        <ele>734.4441</ele>
        <time>2021-06-20T09:31:51Z</time>
      </trkpt>
      <trkpt lat="43.91722" lon="7.24553">
        <ele>738.54434</ele>
        <time>2021-06-20T09:31:59Z</time>
      </trkpt>
      <trkpt lat="43.91723" lon="7.24564">
        <ele>741.74474</ele>
        <time>2021-06-20T09:32:08Z</time>
      </trkpt>
      <trkpt lat="43.91722" lon="7.24576">
        <ele>744.74528666667</ele>
        <time>2021-06-20T09:32:16Z</time>
      </trkpt>
      <trkpt lat="43.91721" lon="7.24587">
        <ele>746.3458</ele>
        <time>2021-06-20T09:32:24Z</time>
      </trkpt>
      <trkpt lat="43.91717" lon="7.24598">
        <ele>748.54652</ele>
        <time>2021-06-20T09:32:31Z</time>
      </trkpt>
      <trkpt lat="43.91715" lon="7.24609">
        <ele>748.64717333333</ele>
        <time>2021-06-20T09:32:40Z</time>
      </trkpt>
      <trkpt lat="43.91711" lon="7.2462">
        <ele>751.34790666667</ele>
        <time>2021-06-20T09:32:53Z</time>
      </trkpt>
      <trkpt lat="43.91711" lon="7.2463">
        <ele>749.84829333333</ele>
        <time>2021-06-20T09:33:01Z</time>
      </trkpt>
      <trkpt lat="43.91712" lon="7.2464">
        <ele>748.74864</ele>
        <time>2021-06-20T09:33:05Z</time>
      </trkpt>
      <trkpt lat="43.91711" lon="7.24653">
        <ele>745.34922666667</ele>
        <time>2021-06-20T09:33:25Z</time>
      </trkpt>
      <trkpt lat="43.91716" lon="7.24662">
        <ele>745.74919333333</ele>
        <time>2021-06-20T09:33:30Z</time>
      </trkpt>
      <trkpt lat="43.91716" lon="7.24673">
        <ele>745.84962</ele>
        <time>2021-06-20T09:33:39Z</time>
      </trkpt>
      <trkpt lat="43.91711" lon="7.24681">
        <ele>745.75034</ele>
        <time>2021-06-20T09:33:45Z</time>
      </trkpt>
      <trkpt lat="43.91709" lon="7.24692">
        <ele>745.35096</ele>
        <time>2021-06-20T09:33:50Z</time>
      </trkpt>
      <trkpt lat="43.91708" lon="7.24702">
        <ele>744.35142666667</ele>
        <time>2021-06-20T09:33:56Z</time>
      </trkpt>
      <trkpt lat="43.91706" lon="7.24714">
        <ele>746.95206666667</ele>
        <time>2021-06-20T09:34:07Z</time>
      </trkpt>
      <trkpt lat="43.91701" lon="7.24723">
        <ele>749.15282</ele>
        <time>2021-06-20T09:34:14Z</time>
      </trkpt>
      <trkpt lat="43.91703" lon="7.24732">
        <ele>750.55300666667</ele>
        <time>2021-06-20T09:34:20Z</time>
      </trkpt>
      <trkpt lat="43.91707" lon="7.24743">
        <ele>753.35312</ele>
        <time>2021-06-20T09:34:25Z</time>
      </trkpt>
      <trkpt lat="43.91713" lon="7.24752">
        <ele>753.65307333333</ele>
        <time>2021-06-20T09:34:32Z</time>
      </trkpt>
      <trkpt lat="43.91711" lon="7.2474">
        <ele>755.75270666667</ele>
        <time>2021-06-20T09:34:46Z</time>
      </trkpt>
      <trkpt lat="43.91712" lon="7.24729">
        <ele>757.1522</ele>
        <time>2021-06-20T09:35:02Z</time>
      </trkpt>
      <trkpt lat="43.91709" lon="7.24717">
        <ele>758.35192666667</ele>
        <time>2021-06-20T09:35:25Z</time>
      </trkpt>
      <trkpt lat="43.91705" lon="7.24706">
        <ele>759.25185333333</ele>
        <time>2021-06-20T09:35:56Z</time>
      </trkpt>
      <trkpt lat="43.91699" lon="7.24716">
        <ele>760.05269333333</ele>
        <time>2021-06-20T09:36:22Z</time>
      </trkpt>
      <trkpt lat="43.917" lon="7.24717">
        <ele>759.95272</ele>
        <time>2021-06-20T09:36:40Z</time>
      </trkpt>
      <trkpt lat="43.917" lon="7.24731">
        <ele>759.35323333333</ele>
        <time>2021-06-20T09:36:45Z</time>
      </trkpt>
      <trkpt lat="43.91703" lon="7.24742">
        <ele>761.75344666667</ele>
        <time>2021-06-20T09:37:15Z</time>
      </trkpt>
      <trkpt lat="43.91705" lon="7.24732">
        <ele>763.15289333333</ele>
        <time>2021-06-20T09:37:28Z</time>
      </trkpt>
      <trkpt lat="43.917" lon="7.24739">
        <ele>764.45353333333</ele>
        <time>2021-06-20T09:38:27Z</time>
      </trkpt>
      <trkpt lat="43.91701" lon="7.24727">
        <ele>763.353</ele>
        <time>2021-06-20T09:40:05Z</time>
      </trkpt>
      <trkpt lat="43.91702" lon="7.24715">
        <ele>764.75242</ele>
        <time>2021-06-20T09:40:35Z</time>
      </trkpt>
      <trkpt lat="43.91702" lon="7.24727">
        <ele>763.65291333333</ele>
        <time>2021-06-20T09:41:05Z</time>
      </trkpt>
      <trkpt lat="43.91702" lon="7.24739">
        <ele>763.35340666667</ele>
        <time>2021-06-20T09:41:12Z</time>
      </trkpt>
      <trkpt lat="43.91701" lon="7.24749">
        <ele>763.05392</ele>
        <time>2021-06-20T09:41:19Z</time>
      </trkpt>
      <trkpt lat="43.91697" lon="7.2476">
        <ele>763.15467333333</ele>
        <time>2021-06-20T09:41:28Z</time>
      </trkpt>
      <trkpt lat="43.91698" lon="7.24748">
        <ele>764.65412</ele>
        <time>2021-06-20T09:41:36Z</time>
      </trkpt>
      <trkpt lat="43.91697" lon="7.24738">
        <ele>764.75377333333</ele>
        <time>2021-06-20T09:41:43Z</time>
      </trkpt>
      <trkpt lat="43.91704" lon="7.24744">
        <ele>767.75341333333</ele>
        <time>2021-06-20T09:43:03Z</time>
      </trkpt>
      <trkpt lat="43.91713" lon="7.24747">
        <ele>767.25288</ele>
        <time>2021-06-20T09:43:11Z</time>
      </trkpt>
      <trkpt lat="43.91719" lon="7.24743">
        <ele>766.55217333333</ele>
        <time>2021-06-20T09:43:17Z</time>
      </trkpt>
      <trkpt lat="43.91728" lon="7.24745">
        <ele>765.45159333333</ele>
        <time>2021-06-20T09:43:26Z</time>
      </trkpt>
      <trkpt lat="43.91724" lon="7.24744">
        <ele>762.75183333333</ele>
        <time>2021-06-20T09:43:53Z</time>
      </trkpt>
      <trkpt lat="43.91713" lon="7.24743">
        <ele>761.8527</ele>
        <time>2021-06-20T09:43:58Z</time>
      </trkpt>
      <trkpt lat="43.91712" lon="7.24731">
        <ele>758.45228</ele>
        <time>2021-06-20T09:44:34Z</time>
      </trkpt>
      <trkpt lat="43.91706" lon="7.24739">
        <ele>758.55310666667</ele>
        <time>2021-06-20T09:44:44Z</time>
      </trkpt>
      <trkpt lat="43.91699" lon="7.24747">
        <ele>759.35393333333</ele>
        <time>2021-06-20T09:44:53Z</time>
      </trkpt>
      <trkpt lat="43.91705" lon="7.24741">
        <ele>758.85320666667</ele>
        <time>2021-06-20T09:45:47Z</time>
      </trkpt>
      <trkpt lat="43.91706" lon="7.24729">
        <ele>758.35269333333</ele>
        <time>2021-06-20T09:45:58Z</time>
      </trkpt>
      <trkpt lat="43.91703" lon="7.24741">
        <ele>760.35337333333</ele>
        <time>2021-06-20T09:47:04Z</time>
      </trkpt>
      <trkpt lat="43.91704" lon="7.2473">
        <ele>760.3529</ele>
        <time>2021-06-20T09:47:11Z</time>
      </trkpt>
      <trkpt lat="43.91704" lon="7.24713">
        <ele>760.95218</ele>
        <time>2021-06-20T09:47:16Z</time>
      </trkpt>
      <trkpt lat="43.91703" lon="7.24722">
        <ele>760.15261333333</ele>
        <time>2021-06-20T09:47:33Z</time>
      </trkpt>
      <trkpt lat="43.91705" lon="7.24749">
        <ele>763.65356</ele>
        <time>2021-06-20T09:47:38Z</time>
      </trkpt>
      <trkpt lat="43.91704" lon="7.24761">
        <ele>765.05414666667</ele>
        <time>2021-06-20T09:47:47Z</time>
      </trkpt>
      <trkpt lat="43.917" lon="7.24772">
        <ele>762.75485333333</ele>
        <time>2021-06-20T09:47:56Z</time>
      </trkpt>
      <trkpt lat="43.91693" lon="7.24779">
        <ele>754.95571333333</ele>
        <time>2021-06-20T09:48:04Z</time>
      </trkpt>
      <trkpt lat="43.91686" lon="7.24786">
        <ele>754.75653333333</ele>
        <time>2021-06-20T09:48:24Z</time>
      </trkpt>
      <trkpt lat="43.91684" lon="7.24797">
        <ele>755.55716</ele>
        <time>2021-06-20T09:48:36Z</time>
      </trkpt>
      <trkpt lat="43.91692" lon="7.24808">
        <ele>753.85694666667</ele>
        <time>2021-06-20T09:48:41Z</time>
      </trkpt>
      <trkpt lat="43.91693" lon="7.24818">
        <ele>754.15732666667</ele>
        <time>2021-06-20T09:48:45Z</time>
      </trkpt>
      <trkpt lat="43.9169" lon="7.2483">
        <ele>753.058</ele>
        <time>2021-06-20T09:48:56Z</time>
      </trkpt>
      <trkpt lat="43.91685" lon="7.24839">
        <ele>750.25878</ele>
        <time>2021-06-20T09:49:03Z</time>
      </trkpt>
      <trkpt lat="43.9168" lon="7.24849">
        <ele>748.05956</ele>
        <time>2021-06-20T09:49:11Z</time>
      </trkpt>
      <trkpt lat="43.91677" lon="7.2486">
        <ele>745.86028666667</ele>
        <time>2021-06-20T09:49:24Z</time>
      </trkpt>
      <trkpt lat="43.91669" lon="7.24866">
        <ele>745.26107333333</ele>
        <time>2021-06-20T09:49:32Z</time>
      </trkpt>
      <trkpt lat="43.91662" lon="7.24871">
        <ele>745.26185333333</ele>
        <time>2021-06-20T09:49:39Z</time>
      </trkpt>
      <trkpt lat="43.91655" lon="7.24874">
        <ele>745.56256</ele>
        <time>2021-06-20T09:49:45Z</time>
      </trkpt>
      <trkpt lat="43.91647" lon="7.24877">
        <ele>746.66328</ele>
        <time>2021-06-20T09:49:51Z</time>
      </trkpt>
      <trkpt lat="43.91639" lon="7.24879">
        <ele>747.46402666667</ele>
        <time>2021-06-20T09:49:58Z</time>
      </trkpt>
      <trkpt lat="43.9163" lon="7.24882">
        <ele>746.16484666667</ele>
        <time>2021-06-20T09:50:05Z</time>
      </trkpt>
      <trkpt lat="43.91622" lon="7.2488">
        <ele>741.66546666667</ele>
        <time>2021-06-20T09:50:14Z</time>
      </trkpt>
      <trkpt lat="43.91614" lon="7.24884">
        <ele>739.46626666667</ele>
        <time>2021-06-20T09:50:22Z</time>
      </trkpt>
      <trkpt lat="43.91608" lon="7.24878">
        <ele>738.96649333333</ele>
        <time>2021-06-20T09:52:39Z</time>
      </trkpt>
      <trkpt lat="43.91608" lon="7.24878">
        <ele>738.96649333333</ele>
        <time>2021-06-20T09:52:39Z</time>
      </trkpt>
    </trkseg>
  </trk>
</gpx>